Sasaki, Shun (2026): Radiosonde measurements from station Minamitorishima (2025-11) [dataset]. Japan Meteorological Agency, Tokyo, PANGAEA, https://doi.org/10.1594/PANGAEA.992656
Always quote citation above when using data! You can download the citation in several formats below.
Published: 2026-02-26 • DOI registered: 2026-03-27
Other version:
Sasaki, Shun (2026): BSRN Station-to-archive file for station Minamitorishima (2025-11) [dataset]. ftp://ftp.bsrn.awi.de/mnm/mnm1125.dat.gz
Project(s):
Coverage:
Latitude: 24.288300 * Longitude: 153.983300
Date/Time Start: 2025-11-01T00:00:00 * Date/Time End: 2025-11-30T23:59:00
Minimum ALTITUDE: 9 m * Maximum ALTITUDE: 33325 m
Event(s):
MNM (Minamitorishima) * Latitude: 24.288300 * Longitude: 153.983300 * Date/Time: 2010-04-01T00:00:00 * Elevation: 7.1 m * Station info: https://hdl.handle.net/10013/epic.44630.d003, update 2022: Minamitorishima.pdf * Location: Minami-Torishima * Method/Device: Monitoring station (MONS) * Comment: BSRN station no: 8; Surface type: water (ocean); Topography type: flat, rural; Horizon: doi:10.1594/PANGAEA.743879; Station scientist: SASAKI Shun (rrc-jma@met.kishou.go.jp)
Parameter(s):
| # | Name | Short Name | Unit | Principal Investigator | Method/Device | Comment |
|---|---|---|---|---|---|---|
| 1 | DATE/TIME | Date/Time | Sasaki, Shun | Geocode | ||
| 2 | ALTITUDE | Altitude | m | Sasaki, Shun | Geocode | |
| 3 | Pressure, at given altitude | PPPP | hPa | Sasaki, Shun | Radiosonde, Meisei, iMS | |
| 4 | Temperature, air | TTT | °C | Sasaki, Shun | Radiosonde, Meisei, iMS | |
| 5 | Dew/frost point | TdTdTd | °C | Sasaki, Shun | Radiosonde, Meisei, iMS | |
| 6 | Wind direction | dd | deg | Sasaki, Shun | Radiosonde, Meisei, iMS | |
| 7 | Wind speed | ff | m/s | Sasaki, Shun | Radiosonde, Meisei, iMS |
License:
Status:
Curation Level: Enhanced curation (CurationLevelC)
Size:
26102 data points
Data
| 1 Date/Time | 2 Altitude [m] | 3 PPPP [hPa] | 4 TTT [°C] | 5 TdTdTd [°C] | 6 dd [deg] | 7 ff [m/s] |
|---|---|---|---|---|---|---|
| 2025-11-01T00:00 | 11556 | 231 | 345 | 11 | ||
| 2025-11-01T00:01 | 11939 | 218 | 335 | 14 | ||
| 2025-11-01T00:02 | 12257 | 207 | -52.1 | |||
| 2025-11-01T00:02 | 12345 | 205 | 345 | 17 | ||
| 2025-11-01T00:03 | 12750 | 192 | 348 | 22 | ||
| 2025-11-01T00:04 | 13127 | 181 | 349 | 21 | ||
| 2025-11-01T00:04 | 13162 | 180 | -58.9 | |||
| 2025-11-01T00:05 | 13522 | 170 | 352 | 15 | ||
| 2025-11-01T00:06 | 13926 | 159 | 341 | 16 | ||
| 2025-11-01T00:07 | 14155 | 153 | -66.8 | |||
| 2025-11-01T00:07 | 14217 | 152 | 345 | 15 | ||
| 2025-11-01T00:07 | 14388 | 147 | 334 | 12 | ||
| 2025-11-01T00:08 | 14482 | 145 | -68.2 | |||
| 2025-11-01T00:08 | 14799 | 138 | 322 | 12 | ||
| 2025-11-01T00:09 | 15197 | 129 | 321 | 12 | ||
| 2025-11-01T00:10 | 15232 | 128 | -74.3 | |||
| 2025-11-01T00:10 | 15340 | 125 | -74.3 | 315 | 11 | |
| 2025-11-01T11:30 | 9 | 1019 | 28.2 | 25.6 | 90 | 7 |
| 2025-11-01T11:30 | 12 | 1018 | 28.4 | 25.4 | 87 | 1 |
| 2025-11-01T11:30 | 80 | 1010 | 90 | 7 | ||
| 2025-11-01T11:31 | 222 | 995 | 26.5 | 24.0 | ||
| 2025-11-01T11:31 | 419 | 973 | 92 | 8 | ||
| 2025-11-01T11:31 | 472 | 967 | 24.4 | 22.5 | ||
| 2025-11-01T11:32 | 568 | 956 | 24.0 | 21.1 | ||
| 2025-11-01T11:32 | 775 | 934 | 115 | 8 | ||
| 2025-11-01T11:33 | 954 | 915 | 21.8 | 17.0 | ||
| 2025-11-01T11:33 | 1133 | 897 | 133 | 6 | ||
| 2025-11-01T11:33 | 1144 | 895 | 20.7 | 16.3 | ||
| 2025-11-01T11:34 | 1362 | 873 | 19.1 | 15.6 | ||
| 2025-11-01T11:34 | 1479 | 862 | 133 | 8 | ||
| 2025-11-01T11:35 | 1844 | 826 | 118 | 10 | ||
| 2025-11-01T11:35 | 1867 | 823 | 16.9 | 13.0 | ||
| 2025-11-01T11:36 | 2028 | 808 | 16.5 | 13.6 | ||
| 2025-11-01T11:36 | 2105 | 801 | 16.8 | 9.0 | ||
| 2025-11-01T11:36 | 2129 | 798 | 124 | 12 | ||
| 2025-11-01T11:36 | 2185 | 793 | 16.6 | 9.3 | ||
| 2025-11-01T11:36 | 2260 | 786 | 16.5 | 6.9 | ||
| 2025-11-01T11:37 | 2451 | 769 | 15.2 | 5.4 | ||
| 2025-11-01T11:37 | 2499 | 764 | 127 | 11 | ||
| 2025-11-01T11:37 | 2535 | 761 | 15.2 | 2.0 | ||
| 2025-11-01T11:38 | 2713 | 745 | 14.6 | 0.1 | ||
| 2025-11-01T11:38 | 2832 | 735 | 112 | 9 | ||
| 2025-11-01T11:39 | 3101 | 712 | 124 | 9 | ||
| 2025-11-01T11:39 | 3144 | 708 | 12.8 | -6.2 | ||
| 2025-11-01T11:39 | 3288 | 696 | 12.1 | -9.6 | ||
| 2025-11-01T11:39 | 3383 | 688 | 121 | 8 | ||
| 2025-11-01T11:40 | 3442 | 683 | 11.4 | -15.2 | ||
| 2025-11-01T11:40 | 3729 | 660 | 9.7 | -21.7 | ||
| 2025-11-01T11:40 | 3741 | 659 | 99 | 5 | ||
| 2025-11-01T11:41 | 3884 | 648 | 8.5 | -12.0 | ||
| 2025-11-01T11:41 | 4069 | 634 | 82 | 2 | ||
| 2025-11-01T11:42 | 4179 | 625 | 6.5 | -16.8 | ||
| 2025-11-01T11:42 | 4283 | 617 | 6.3 | -28.8 | ||
| 2025-11-01T11:42 | 4301 | 616 | 121 | 5 | ||
| 2025-11-01T11:43 | 4573 | 596 | 126 | 6 | ||
| 2025-11-01T11:43 | 4623 | 592 | 3.6 | -22.3 | ||
| 2025-11-01T11:44 | 4900 | 572 | 1.9 | -29.0 | ||
| 2025-11-01T11:44 | 4958 | 568 | 102 | 6 | ||
| 2025-11-01T11:44 | 4971 | 567 | 1.3 | -23.3 | ||
| 2025-11-01T11:45 | 5277 | 546 | 110 | 5 | ||
| 2025-11-01T11:45 | 5374 | 539 | -1.1 | -30.1 | ||
| 2025-11-01T11:46 | 5651 | 521 | -3.0 | -31.5 | ||
| 2025-11-01T11:46 | 5671 | 519 | 126 | 7 | ||
| 2025-11-01T11:47 | 6061 | 494 | 108 | 8 | ||
| 2025-11-01T11:47 | 6280 | 481 | -7.8 | -37.8 | ||
| 2025-11-01T11:47 | 6345 | 477 | 98 | 6 | ||
| 2025-11-01T11:48 | 6719 | 454 | 87 | 8 | ||
| 2025-11-01T11:48 | 6754 | 452 | -11.4 | -39.2 | ||
| 2025-11-01T11:49 | 6963 | 440 | 84 | 5 | ||
| 2025-11-01T11:50 | 7207 | 426 | 84 | 6 | ||
| 2025-11-01T11:50 | 7374 | 417 | -16.7 | -38.7 | ||
| 2025-11-01T11:50 | 7439 | 413 | -17.1 | -29.6 | ||
| 2025-11-01T11:50 | 7475 | 411 | 70 | 7 | ||
| 2025-11-01T11:50 | 7486 | 410 | -17.6 | -27.2 | ||
| 2025-11-01T11:51 | 7546 | 407 | -18.1 | -21.0 | ||
| 2025-11-01T11:51 | 7594 | 405 | -18.1 | -21.1 | ||
| 2025-11-01T11:51 | 7642 | 402 | -17.8 | -24.3 | ||
| 2025-11-01T11:51 | 7648 | 402 | 80 | 7 | ||
| 2025-11-01T11:52 | 7887 | 389 | -18.9 | -24.9 | ||
| 2025-11-01T11:52 | 7906 | 388 | 105 | 8 | ||
| 2025-11-01T11:52 | 7986 | 384 | -19.0 | -28.0 | ||
| 2025-11-01T11:52 | 8034 | 381 | -19.1 | -31.4 | ||
| 2025-11-01T11:52 | 8115 | 377 | 94 | 7 | ||
| 2025-11-01T11:53 | 8260 | 370 | -21.0 | -31.6 | ||
| 2025-11-01T11:53 | 8289 | 369 | 80 | 6 | ||
| 2025-11-01T11:53 | 8433 | 361 | -20.7 | -42.0 | ||
| 2025-11-01T11:54 | 8654 | 351 | 78 | 7 | ||
| 2025-11-01T11:54 | 8834 | 342 | 81 | 8 | ||
| 2025-11-01T11:54 | 8904 | 339 | -24.2 | -47.2 | ||
| 2025-11-01T11:55 | 9096 | 330 | 80 | 6 | ||
| 2025-11-01T11:55 | 9257 | 323 | 52 | 3 | ||
| 2025-11-01T11:56 | 9408 | 316 | 38 | 3 | ||
| 2025-11-01T11:56 | 9525 | 311 | 41 | 6 | ||
| 2025-11-01T11:56 | 9549 | 310 | -29.4 | -47.3 | ||
| 2025-11-01T11:56 | 9661 | 305 | 46 | 6 | ||
| 2025-11-01T11:56 | 9693 | 304 | -30.2 | -50.5 | ||
| 2025-11-01T11:57 | 10047 | 289 | 17 | 9 | ||
| 2025-11-01T11:58 | 10292 | 279 | -35.2 | -48.3 | ||
| 2025-11-01T11:58 | 10380 | 275 | 359 | 10 | ||
| 2025-11-01T11:59 | 10646 | 265 | -38.3 | -48.6 | ||
| 2025-11-01T11:59 | 10756 | 261 | -39.2 | -50.5 | ||
| 2025-11-01T11:59 | 10782 | 260 | 15 | 10 | ||
| 2025-11-01T11:59 | 10837 | 258 | -40.0 | -50.1 | ||
| 2025-11-01T12:00 | 11188 | 245 | 30 | 11 | ||
| 2025-11-01T12:01 | 11594 | 230 | 20 | 11 | ||
| 2025-11-01T12:02 | 11972 | 217 | 23 | 10 | ||
| 2025-11-01T12:03 | 12111 | 213 | -50.9 | |||
| 2025-11-01T12:03 | 12344 | 205 | 23 | 9 | ||
| 2025-11-01T12:04 | 12738 | 193 | 4 | 11 | ||
| 2025-11-01T12:05 | 13066 | 183 | 357 | 12 | ||
| 2025-11-01T12:06 | 13316 | 176 | 12 | 11 | ||
| 2025-11-01T12:06 | 13580 | 169 | 12 | 5 | ||
| 2025-11-01T12:07 | 13781 | 164 | 31 | 2 | ||
| 2025-11-01T12:07 | 13880 | 161 | -63.2 | |||
| 2025-11-01T12:07 | 13997 | 158 | 51 | 5 | ||
| 2025-11-01T12:08 | 14427 | 147 | 347 | 5 | ||
| 2025-11-01T12:09 | 14757 | 139 | -69.8 | |||
| 2025-11-01T12:09 | 14903 | 136 | 330 | 10 | ||
| 2025-11-01T12:10 | 15276 | 128 | -71.7 | |||
| 2025-11-01T12:10 | 15398 | 125 | 330 | 18 | ||
| 2025-11-01T12:11 | 15826 | 116 | -72.8 | |||
| 2025-11-01T12:11 | 15892 | 115 | 336 | 12 | ||
| 2025-11-01T12:12 | 16201 | 109 | -74.3 | |||
| 2025-11-01T12:12 | 16377 | 106 | 328 | 9 | ||
| 2025-11-01T12:13 | 16805 | 98 | 327 | 9 | ||
| 2025-11-01T12:13 | 16841 | 97 | -78.9 | |||
| 2025-11-01T12:13 | 16960 | 95 | -77.2 | 349 | 6 | |
| 2025-11-01T23:30 | 9 | 1018 | 30.2 | 26.4 | 110 | 7 |
| 2025-11-01T23:30 | 11 | 1017 | 29.8 | 26.0 | 110 | 1 |
| 2025-11-01T23:30 | 20 | 1016 | 29.4 | 25.0 | ||
| 2025-11-01T23:30 | 41 | 1014 | 121 | 4 | ||
| 2025-11-01T23:30 | 52 | 1013 | 28.2 | 24.4 | ||
| 2025-11-01T23:31 | 166 | 1000 | 108 | 9 | ||
| 2025-11-01T23:31 | 415 | 972 | 24.7 | 23.0 | ||
| 2025-11-01T23:32 | 507 | 962 | 112 | 9 | ||
| 2025-11-01T23:32 | 656 | 946 | 22.8 | 22.1 | ||
| 2025-11-01T23:32 | 758 | 935 | 22.4 | 20.5 | ||
| 2025-11-01T23:32 | 798 | 931 | 22.4 | 18.8 | ||
| 2025-11-01T23:33 | 848 | 926 | 122 | 10 | ||
| 2025-11-01T23:33 | 1102 | 899 | 21.1 | 17.3 | ||
| 2025-11-01T23:34 | 1180 | 891 | 110 | 11 | ||
| 2025-11-01T23:34 | 1295 | 879 | 20.0 | 15.6 | ||
| 2025-11-01T23:35 | 1507 | 858 | 116 | 10 | ||
| 2025-11-01T23:35 | 1529 | 855 | 19.0 | 14.3 | ||
| 2025-11-01T23:35 | 1698 | 839 | 18.5 | 11.8 | ||
| 2025-11-01T23:35 | 1743 | 834 | 18.5 | 9.6 | ||
| 2025-11-01T23:35 | 1811 | 828 | 17.9 | 11.5 | ||
| 2025-11-01T23:36 | 1845 | 824 | 120 | 10 | ||
| 2025-11-01T23:36 | 1919 | 817 | 17.8 | 10.2 | ||
| 2025-11-01T23:36 | 2026 | 807 | 17.3 | 8.7 | ||
| 2025-11-01T23:37 | 2178 | 793 | 126 | 11 | ||
| 2025-11-01T23:37 | 2199 | 791 | 16.5 | 5.2 | ||
| 2025-11-01T23:37 | 2237 | 787 | 16.2 | 7.4 | ||
| 2025-11-01T23:38 | 2489 | 764 | 120 | 10 | ||
| 2025-11-01T23:38 | 2494 | 764 | 15.2 | 2.0 | ||
| 2025-11-01T23:38 | 2608 | 754 | 14.8 | 1.3 | ||
| 2025-11-01T23:38 | 2724 | 743 | 14.1 | 1.4 | ||
| 2025-11-01T23:39 | 2784 | 738 | 14.2 | -4.5 | 122 | 10 |
| 2025-11-01T23:39 | 2852 | 732 | 13.9 | -1.7 | ||
| 2025-11-01T23:39 | 2913 | 727 | 13.7 | -6.5 | ||
| 2025-11-01T23:39 | 3000 | 719 | 13.4 | -6.2 | ||
| 2025-11-01T23:39 | 3046 | 715 | 127 | 9 | ||
| 2025-11-01T23:40 | 3206 | 702 | 12.9 | -7.7 | ||
| 2025-11-01T23:40 | 3241 | 699 | 107 | 9 | ||
| 2025-11-01T23:40 | 3288 | 695 | 12.0 | -2.2 | ||
| 2025-11-01T23:40 | 3325 | 692 | 12.1 | -11.5 | ||
| 2025-11-01T23:41 | 3383 | 687 | 11.7 | -0.5 | ||
| 2025-11-01T23:41 | 3480 | 679 | 94 | 11 | ||
| 2025-11-01T23:41 | 3496 | 678 | 10.8 | -5.7 | ||
| 2025-11-01T23:41 | 3559 | 673 | 11.0 | -15.5 | ||
| 2025-11-01T23:42 | 3757 | 657 | 10.1 | -20.2 | ||
| 2025-11-01T23:42 | 3825 | 651 | 88 | 11 | ||
| 2025-11-01T23:42 | 3936 | 643 | 9.1 | -22.2 | ||
| 2025-11-01T23:43 | 4153 | 626 | 94 | 10 | ||
| 2025-11-01T23:43 | 4368 | 610 | 5.5 | -24.9 | ||
| 2025-11-01T23:44 | 4444 | 604 | 97 | 9 | ||
| 2025-11-01T23:44 | 4460 | 603 | 4.8 | -23.3 | ||
| 2025-11-01T23:44 | 4641 | 590 | 104 | 6 | ||
| 2025-11-01T23:45 | 4779 | 580 | 3.1 | -23.6 | ||
| 2025-11-01T23:45 | 4913 | 570 | 113 | 6 | ||
| 2025-11-01T23:46 | 5095 | 557 | 93 | 6 | ||
| 2025-11-01T23:46 | 5272 | 545 | 119 | 9 | ||
| 2025-11-01T23:47 | 5598 | 523 | 114 | 10 | ||
| 2025-11-01T23:48 | 5688 | 518 | -3.6 | -29.0 | ||
| 2025-11-01T23:48 | 5746 | 514 | 123 | 10 | ||
| 2025-11-01T23:49 | 6026 | 496 | 110 | 10 | ||
| 2025-11-01T23:50 | 6371 | 474 | 115 | 11 | ||
| 2025-11-01T23:50 | 6516 | 466 | -9.7 | -36.7 | ||
| 2025-11-01T23:51 | 6702 | 454 | 93 | 11 | ||
| 2025-11-01T23:51 | 6872 | 444 | -12.6 | -35.4 | ||
| 2025-11-01T23:52 | 7021 | 436 | 91 | 11 | ||
| 2025-11-01T23:52 | 7037 | 435 | -13.8 | -30.1 | ||
| 2025-11-01T23:52 | 7092 | 432 | -13.8 | -23.7 | ||
| 2025-11-01T23:52 | 7177 | 427 | -13.7 | -26.5 | ||
| 2025-11-01T23:52 | 7225 | 424 | 93 | 7 | ||
| 2025-11-01T23:53 | 7459 | 411 | 107 | 6 | ||
| 2025-11-01T23:54 | 7658 | 400 | -17.8 | -32.3 | ||
| 2025-11-01T23:54 | 7807 | 392 | 78 | 10 | ||
| 2025-11-01T23:54 | 7813 | 392 | -18.7 | -40.4 | ||
| 2025-11-01T23:55 | 8100 | 377 | -21.0 | -36.7 | ||
| 2025-11-01T23:55 | 8146 | 375 | -21.3 | -35.4 | ||
| 2025-11-01T23:55 | 8164 | 374 | 53 | 11 | ||
| 2025-11-01T23:56 | 8328 | 366 | -22.6 | -36.5 | ||
| 2025-11-01T23:56 | 8510 | 357 | 42 | 12 | ||
| 2025-11-01T23:56 | 8522 | 356 | -24.0 | -38.5 | ||
| 2025-11-01T23:57 | 8693 | 348 | -23.9 | -46.1 | ||
| 2025-11-01T23:57 | 8840 | 341 | 21 | 13 | ||
| 2025-11-01T23:57 | 8923 | 337 | -25.0 | -42.5 | ||
| 2025-11-01T23:58 | 9237 | 323 | -27.2 | -42.5 | ||
| 2025-11-01T23:58 | 9244 | 322 | 17 | 14 | ||
| 2025-11-01T23:59 | 9630 | 305 | -30.7 | -49.0 | ||
| 2025-11-01T23:59 | 9665 | 304 | 32 | 11 | ||
| 2025-11-02T00:00 | 10059 | 287 | -33.9 | -56.9 | ||
| 2025-11-02T00:00 | 10073 | 287 | 56 | 11 | ||
| 2025-11-02T00:01 | 10464 | 271 | 59 | 13 | ||
| 2025-11-02T00:02 | 10727 | 261 | -40.0 | -59.2 | ||
| 2025-11-02T00:02 | 10865 | 256 | 68 | 14 | ||
| 2025-11-02T00:03 | 11295 | 240 | 54 | 13 | ||
| 2025-11-02T00:04 | 11616 | 229 | -47.5 | |||
| 2025-11-02T00:04 | 11709 | 225 | 48 | 14 | ||
| 2025-11-02T00:05 | 12105 | 212 | -51.5 | |||
| 2025-11-02T00:05 | 12148 | 211 | 46 | 12 | ||
| 2025-11-02T00:06 | 12508 | 199 | 36 | 12 | ||
| 2025-11-02T00:07 | 12827 | 190 | -56.4 | |||
| 2025-11-02T00:07 | 12936 | 186 | 52 | 13 | ||
| 2025-11-02T00:08 | 13358 | 174 | 41 | 13 | ||
| 2025-11-02T00:09 | 13778 | 163 | 35 | 15 | ||
| 2025-11-02T00:10 | 14199 | 152 | 26 | 17 | ||
| 2025-11-02T00:11 | 14640 | 141 | 22 | 17 | ||
| 2025-11-02T00:11 | 14742 | 138 | -72.8 | |||
| 2025-11-02T00:12 | 15066 | 131 | -74.3 | |||
| 2025-11-02T00:12 | 15113 | 130 | 359 | 19 | ||
| 2025-11-02T00:12 | 15224 | 127 | -73.5 | |||
| 2025-11-02T00:12 | 15404 | 124 | 356 | 25 | ||
| 2025-11-02T00:13 | 15636 | 119 | -74.7 | |||
| 2025-11-02T00:13 | 15766 | 116 | 4 | 18 | ||
| 2025-11-02T00:13 | 15775 | 116 | -74.0 | |||
| 2025-11-02T00:13 | 15898 | 114 | -71.9 | |||
| 2025-11-02T00:14 | 15987 | 112 | 37 | 10 | ||
| 2025-11-02T00:14 | 16444 | 103 | 92 | 10 | ||
| 2025-11-02T00:15 | 16635 | 100 | -76.9 | |||
| 2025-11-02T00:15 | 16844 | 96 | -78.6 | |||
| 2025-11-02T00:15 | 16932 | 95 | 139 | 7 | ||
| 2025-11-02T00:16 | 17102 | 92 | 133 | 4 | ||
| 2025-11-02T00:16 | 17125 | 92 | -80.0 | |||
| 2025-11-02T00:16 | 17248 | 90 | 112 | 5 | ||
| 2025-11-02T00:16 | 17379 | 88 | -79.5 | |||
| 2025-11-02T00:16 | 17431 | 87 | 112 | 3 | ||
| 2025-11-02T00:17 | 17767 | 82 | -76.2 | |||
| 2025-11-02T00:17 | 17874 | 80 | 135 | 4 | ||
| 2025-11-02T00:18 | 17989 | 79 | -76.7 | |||
| 2025-11-02T00:18 | 18031 | 78 | 173 | 1 | ||
| 2025-11-02T00:18 | 18179 | 76 | 27 | 3 | ||
| 2025-11-02T00:18 | 18189 | 76 | -75.1 | |||
| 2025-11-02T00:19 | 18363 | 74 | 78 | 4 | ||
| 2025-11-02T00:19 | 18457 | 73 | 44 | 2 | ||
| 2025-11-02T00:19 | 18540 | 72 | 11 | 3 | ||
| 2025-11-02T00:19 | 18651 | 70 | 57 | 4 | ||
| 2025-11-02T00:20 | 18815 | 68 | 112 | 7 | ||
| 2025-11-02T00:20 | 19021 | 66 | -74.1 | 92 | 6 | |
| 2025-11-02T00:21 | 19227 | 64 | 52 | 10 | ||
| 2025-11-02T00:21 | 19512 | 61 | -71.6 | |||
| 2025-11-02T00:21 | 19561 | 60 | 97 | 10 | ||
| 2025-11-02T00:22 | 19758 | 58 | -72.8 | |||
| 2025-11-02T00:22 | 19872 | 57 | -71.1 | |||
| 2025-11-02T00:22 | 19989 | 56 | 85 | 9 | ||
| 2025-11-02T00:23 | 20096 | 55 | -69.4 | |||
| 2025-11-02T00:23 | 20293 | 53 | -67.8 | |||
| 2025-11-02T00:23 | 20408 | 52 | 105 | 14 | ||
| 2025-11-02T00:24 | 20596 | 51 | 117 | 11 | ||
| 2025-11-02T00:24 | 20813 | 49 | 143 | 7 | ||
| 2025-11-02T00:25 | 20970 | 48 | 107 | 5 | ||
| 2025-11-02T00:25 | 21220 | 46 | -64.3 | |||
| 2025-11-02T00:26 | 21311 | 45 | 78 | 10 | ||
| 2025-11-02T00:26 | 21608 | 43 | 75 | 6 | ||
| 2025-11-02T00:27 | 21978 | 40 | 75 | 8 | ||
| 2025-11-02T00:28 | 22223 | 39 | 74 | 6 | ||
| 2025-11-02T00:28 | 22371 | 38 | 67 | 8 | ||
| 2025-11-02T00:28 | 22451 | 37 | -61.4 | |||
| 2025-11-02T00:29 | 22588 | 37 | 95 | 10 | ||
| 2025-11-02T00:30 | 23011 | 34 | 128 | 9 | ||
| 2025-11-02T00:30 | 23066 | 34 | -59.7 | |||
| 2025-11-02T00:31 | 23331 | 33 | 99 | 6 | ||
| 2025-11-02T00:31 | 23608 | 31 | -58.2 | |||
| 2025-11-02T00:32 | 23770 | 30 | 68 | 8 | ||
| 2025-11-02T00:32 | 24135 | 29 | 77 | 13 | ||
| 2025-11-02T00:33 | 24472 | 27 | -58.4 | |||
| 2025-11-02T00:33 | 24565 | 27 | 115 | 9 | ||
| 2025-11-02T00:34 | 24756 | 26 | 125 | 6 | ||
| 2025-11-02T00:34 | 24807 | 26 | -58.3 | |||
| 2025-11-02T00:34 | 24980 | 25 | 77 | 7 | ||
| 2025-11-02T00:35 | 25238 | 24 | 93 | 7 | ||
| 2025-11-02T00:36 | 25675 | 22 | 53 | 7 | ||
| 2025-11-02T00:37 | 25995 | 21 | 71 | 5 | ||
| 2025-11-02T00:38 | 26366 | 20 | -55.2 | |||
| 2025-11-02T00:38 | 26494 | 20 | 73 | 8 | ||
| 2025-11-02T00:39 | 26899 | 19 | 86 | 6 | ||
| 2025-11-02T00:39 | 27185 | 18 | 85 | 6 | ||
| 2025-11-02T00:40 | 27335 | 17 | 87 | 4 | ||
| 2025-11-02T00:40 | 27485 | 17 | 87 | 4 | ||
| 2025-11-02T00:41 | 27797 | 16 | -50.2 | 357 | 5 | |
| 2025-11-02T00:41 | 28127 | 15 | 338 | 5 | ||
| 2025-11-02T00:42 | 28215 | 15 | 325 | 2 | ||
| 2025-11-02T00:42 | 28262 | 15 | -51.0 | |||
| 2025-11-02T00:42 | 28345 | 15 | 249 | 3 | ||
| 2025-11-02T00:43 | 28755 | 14 | 344 | 2 | ||
| 2025-11-02T00:43 | 28944 | 14 | 237 | 2 | ||
| 2025-11-02T00:43 | 29140 | 13 | 235 | 7 | ||
| 2025-11-02T00:44 | 29339 | 13 | -51.4 | |||
| 2025-11-02T00:44 | 29497 | 12 | 253 | 5 | ||
| 2025-11-02T00:45 | 29670 | 12 | -51.1 | 234 | 4 | |
| 2025-11-02T11:30 | 9 | 1018 | 27.8 | 24.9 | 90 | 11 |
| 2025-11-02T11:30 | 12 | 1017 | 28.2 | 24.2 | 85 | 1 |
| 2025-11-02T11:30 | 46 | 1013 | 80 | 5 | ||
| 2025-11-02T11:30 | 70 | 1011 | 27.9 | 23.1 | ||
| 2025-11-02T11:30 | 126 | 1004 | 93 | 11 | ||
| 2025-11-02T11:31 | 183 | 998 | 27.2 | 21.0 | ||
| 2025-11-02T11:31 | 331 | 981 | 94 | 15 | ||
| 2025-11-02T11:31 | 483 | 965 | 25.2 | 19.6 | ||
| 2025-11-02T11:32 | 597 | 952 | 24.2 | 19.5 | ||
| 2025-11-02T11:32 | 672 | 944 | 95 | 13 | ||
| 2025-11-02T11:32 | 823 | 928 | 22.2 | 19.7 | ||
| 2025-11-02T11:33 | 1027 | 906 | 101 | 13 | ||
| 2025-11-02T11:34 | 1234 | 885 | 19.7 | 16.9 | ||
| 2025-11-02T11:34 | 1374 | 871 | 97 | 12 | ||
| 2025-11-02T11:35 | 1602 | 848 | 17.9 | 13.8 | ||
| 2025-11-02T11:35 | 1700 | 838 | 92 | 12 | ||
| 2025-11-02T11:35 | 1807 | 828 | 16.7 | 12.8 | ||
| 2025-11-02T11:35 | 1858 | 823 | 16.8 | 12.1 | ||
| 2025-11-02T11:36 | 2002 | 809 | 16.3 | 14.1 | ||
| 2025-11-02T11:36 | 2042 | 805 | 88 | 12 | ||
| 2025-11-02T11:37 | 2229 | 788 | 15.5 | 12.3 | ||
| 2025-11-02T11:37 | 2325 | 779 | 15.3 | 10.1 | ||
| 2025-11-02T11:37 | 2366 | 775 | 15.7 | 7.0 | 94 | 12 |
| 2025-11-02T11:38 | 2532 | 760 | 14.5 | 7.1 | ||
| 2025-11-02T11:38 | 2669 | 748 | 94 | 13 | ||
| 2025-11-02T11:38 | 2675 | 747 | 13.9 | 5.0 | ||
| 2025-11-02T11:38 | 2777 | 738 | 13.4 | 2.0 | ||
| 2025-11-02T11:39 | 2904 | 727 | 13.0 | -2.1 | ||
| 2025-11-02T11:39 | 2989 | 720 | 12.7 | -2.4 | 93 | 10 |
| 2025-11-02T11:39 | 3095 | 711 | 11.7 | -1.8 | ||
| 2025-11-02T11:40 | 3212 | 701 | 11.5 | -12.7 | ||
| 2025-11-02T11:40 | 3323 | 692 | 108 | 7 | ||
| 2025-11-02T11:40 | 3394 | 686 | 10.4 | -10.4 | ||
| 2025-11-02T11:40 | 3490 | 678 | 9.3 | -5.8 | ||
| 2025-11-02T11:41 | 3575 | 671 | 8.5 | -3.1 | ||
| 2025-11-02T11:41 | 3643 | 666 | 8.1 | -5.4 | ||
| 2025-11-02T11:41 | 3685 | 662 | 129 | 9 | ||
| 2025-11-02T11:41 | 3691 | 662 | 7.6 | -5.8 | ||
| 2025-11-02T11:41 | 3790 | 654 | 6.7 | -1.5 | ||
| 2025-11-02T11:42 | 3906 | 645 | 6.8 | -9.6 | ||
| 2025-11-02T11:42 | 3948 | 642 | 7.4 | -16.8 | ||
| 2025-11-02T11:42 | 4049 | 634 | 121 | 9 | ||
| 2025-11-02T11:42 | 4125 | 628 | 7.0 | -22.6 | ||
| 2025-11-02T11:43 | 4392 | 608 | 101 | 8 | ||
| 2025-11-02T11:43 | 4517 | 598 | 3.8 | -26.3 | ||
| 2025-11-02T11:44 | 4631 | 590 | 104 | 8 | ||
| 2025-11-02T11:44 | 4822 | 576 | 108 | 8 | ||
| 2025-11-02T11:45 | 4929 | 569 | 100 | 8 | ||
| 2025-11-02T11:45 | 5067 | 559 | 100 | 8 | ||
| 2025-11-02T11:46 | 5368 | 538 | 116 | 6 | ||
| 2025-11-02T11:46 | 5436 | 534 | -1.5 | -41.4 | ||
| 2025-11-02T11:47 | 5686 | 517 | 115 | 8 | ||
| 2025-11-02T11:48 | 6037 | 494 | 122 | 9 | ||
| 2025-11-02T11:48 | 6092 | 491 | -6.7 | -35.6 | ||
| 2025-11-02T11:49 | 6285 | 479 | 120 | 6 | ||
| 2025-11-02T11:49 | 6427 | 470 | 121 | 7 | ||
| 2025-11-02T11:50 | 6719 | 453 | -12.2 | -23.3 | ||
| 2025-11-02T11:50 | 6786 | 449 | 149 | 5 | ||
| 2025-11-02T11:51 | 6994 | 437 | -14.3 | -24.7 | ||
| 2025-11-02T11:51 | 7082 | 432 | 146 | 5 | ||
| 2025-11-02T11:51 | 7125 | 429 | -15.3 | -25.9 | ||
| 2025-11-02T11:52 | 7368 | 416 | -16.7 | -35.5 | ||
| 2025-11-02T11:52 | 7453 | 411 | -17.4 | -32.8 | 134 | 7 |
| 2025-11-02T11:52 | 7598 | 403 | -17.8 | -41.2 | ||
| 2025-11-02T11:53 | 7678 | 399 | 106 | 7 | ||
| 2025-11-02T11:53 | 7745 | 395 | -19.2 | -30.3 | ||
| 2025-11-02T11:53 | 7862 | 389 | 122 | 10 | ||
| 2025-11-02T11:53 | 7899 | 387 | -20.3 | -31.8 | ||
| 2025-11-02T11:53 | 7966 | 383 | -20.6 | -34.4 | ||
| 2025-11-02T11:54 | 8181 | 372 | -22.5 | -34.1 | ||
| 2025-11-02T11:54 | 8231 | 370 | 147 | 8 | ||
| 2025-11-02T11:55 | 8347 | 364 | -23.4 | -40.1 | ||
| 2025-11-02T11:55 | 8533 | 355 | -24.3 | -44.3 | ||
| 2025-11-02T11:55 | 8625 | 351 | 118 | 9 | ||
| 2025-11-02T11:55 | 8739 | 345 | -24.9 | -50.9 | ||
| 2025-11-02T11:56 | 8933 | 336 | 104 | 10 | ||
| 2025-11-02T11:56 | 9072 | 330 | -27.1 | -59.5 | ||
| 2025-11-02T11:57 | 9249 | 322 | 83 | 12 | ||
| 2025-11-02T11:58 | 9639 | 304 | 77 | 17 | ||
| 2025-11-02T11:58 | 9687 | 302 | -32.3 | -53.7 | ||
| 2025-11-02T11:58 | 9849 | 295 | -33.6 | -50.8 | ||
| 2025-11-02T11:59 | 10032 | 288 | -33.9 | -62.3 | ||
| 2025-11-02T11:59 | 10046 | 287 | 49 | 14 | ||
| 2025-11-02T12:00 | 10472 | 270 | 50 | 14 | ||
| 2025-11-02T12:00 | 10741 | 260 | -39.7 | -62.5 | ||
| 2025-11-02T12:01 | 10805 | 257 | -39.8 | -52.0 | ||
| 2025-11-02T12:01 | 10898 | 254 | 58 | 13 | ||
| 2025-11-02T12:01 | 10906 | 254 | -40.0 | -63.9 | ||
| 2025-11-02T12:02 | 11313 | 239 | 35 | 11 | ||
| 2025-11-02T12:03 | 11711 | 225 | 34 | 14 | ||
| 2025-11-02T12:04 | 12090 | 212 | 47 | 14 | ||
| 2025-11-02T12:04 | 12135 | 211 | -50.4 | |||
| 2025-11-02T12:05 | 12471 | 200 | 55 | 14 | ||
| 2025-11-02T12:06 | 12871 | 188 | 25 | 15 | ||
| 2025-11-02T12:06 | 13143 | 180 | -58.6 | |||
| 2025-11-02T12:07 | 13307 | 176 | 30 | 15 | ||
| 2025-11-02T12:08 | 13770 | 163 | 14 | 16 | ||
| 2025-11-02T12:08 | 13944 | 158 | -64.5 | |||
| 2025-11-02T12:09 | 14235 | 151 | 26 | 16 | ||
| 2025-11-02T12:10 | 14663 | 141 | 26 | 16 | ||
| 2025-11-02T12:10 | 14696 | 140 | -69.6 | |||
| 2025-11-02T12:10 | 14852 | 136 | -70.0 | |||
| 2025-11-02T12:10 | 15106 | 131 | 19 | 15 | ||
| 2025-11-02T12:11 | 15291 | 126 | 56 | 10 | ||
| 2025-11-02T12:11 | 15470 | 123 | 65 | 11 | ||
| 2025-11-02T12:11 | 15478 | 122 | -73.9 | |||
| 2025-11-02T12:12 | 15792 | 116 | 77 | 7 | ||
| 2025-11-02T12:12 | 16013 | 112 | 58 | 4 | ||
| 2025-11-02T12:13 | 16126 | 109 | -78.5 | |||
| 2025-11-02T12:13 | 16164 | 109 | 351 | 7 | ||
| 2025-11-02T12:13 | 16313 | 106 | -78.4 | 349 | 9 | |
| 2025-11-02T23:30 | 9 | 1017 | 30.5 | 25.8 | 110 | 7 |
| 2025-11-02T23:30 | 11 | 1017 | 30.0 | 25.1 | 110 | 1 |
| 2025-11-02T23:30 | 42 | 1013 | 97 | 5 | ||
| 2025-11-02T23:30 | 66 | 1011 | 28.4 | 23.3 | ||
| 2025-11-02T23:31 | 170 | 999 | 109 | 8 | ||
| 2025-11-02T23:32 | 516 | 961 | 110 | 9 | ||
| 2025-11-02T23:32 | 656 | 946 | 22.8 | 21.3 | ||
| 2025-11-02T23:32 | 789 | 931 | 22.2 | 19.2 | ||
| 2025-11-02T23:33 | 879 | 922 | 117 | 11 | ||
| 2025-11-02T23:33 | 1021 | 907 | 21.0 | 17.6 | ||
| 2025-11-02T23:34 | 1230 | 885 | 129 | 11 | ||
| 2025-11-02T23:34 | 1282 | 880 | 19.9 | 15.1 | ||
| 2025-11-02T23:34 | 1488 | 859 | 19.0 | 11.1 | ||
| 2025-11-02T23:35 | 1572 | 851 | 129 | 10 | ||
| 2025-11-02T23:35 | 1642 | 844 | 18.5 | 7.3 | ||
| 2025-11-02T23:35 | 1837 | 825 | 18.4 | 3.8 | ||
| 2025-11-02T23:36 | 1896 | 819 | 124 | 10 | ||
| 2025-11-02T23:36 | 1993 | 810 | 18.5 | -3.6 | ||
| 2025-11-02T23:36 | 2057 | 804 | 17.9 | 2.6 | ||
| 2025-11-02T23:36 | 2122 | 798 | 17.4 | 3.7 | ||
| 2025-11-02T23:37 | 2249 | 786 | 127 | 10 | ||
| 2025-11-02T23:37 | 2390 | 773 | 15.7 | 1.8 | ||
| 2025-11-02T23:37 | 2471 | 765 | 15.4 | 1.5 | ||
| 2025-11-02T23:37 | 2552 | 758 | 14.9 | 1.1 | ||
| 2025-11-02T23:38 | 2620 | 752 | 126 | 10 | ||
| 2025-11-02T23:38 | 2729 | 742 | 14.3 | -3.0 | ||
| 2025-11-02T23:38 | 2937 | 724 | 12.6 | -5.9 | ||
| 2025-11-02T23:39 | 2977 | 721 | 129 | 11 | ||
| 2025-11-02T23:39 | 3012 | 718 | 13.0 | -19.2 | ||
| 2025-11-02T23:39 | 3152 | 706 | 12.3 | -15.4 | ||
| 2025-11-02T23:39 | 3221 | 700 | 11.8 | -12.5 | ||
| 2025-11-02T23:40 | 3325 | 691 | 124 | 10 | ||
| 2025-11-02T23:41 | 3684 | 662 | 116 | 9 | ||
| 2025-11-02T23:41 | 3875 | 647 | 7.8 | -19.9 | ||
| 2025-11-02T23:42 | 4044 | 634 | 116 | 6 | ||
| 2025-11-02T23:42 | 4105 | 629 | 6.9 | -22.7 | ||
| 2025-11-02T23:43 | 4415 | 606 | 5.1 | -23.0 | 111 | 9 |
| 2025-11-02T23:44 | 4785 | 578 | 118 | 7 | ||
| 2025-11-02T23:44 | 4962 | 566 | 0.3 | -24.1 | ||
| 2025-11-02T23:44 | 5091 | 557 | 134 | 5 | ||
| 2025-11-02T23:45 | 5224 | 548 | -1.5 | -26.4 | ||
| 2025-11-02T23:45 | 5285 | 543 | -2.0 | -24.5 | ||
| 2025-11-02T23:45 | 5358 | 538 | 107 | 4 | ||
| 2025-11-02T23:46 | 5497 | 529 | -2.4 | -33.7 | ||
| 2025-11-02T23:46 | 5718 | 514 | 92 | 8 | ||
| 2025-11-02T23:46 | 5776 | 511 | -4.9 | -26.2 | ||
| 2025-11-02T23:47 | 6026 | 494 | -6.7 | -38.4 | ||
| 2025-11-02T23:47 | 6074 | 491 | 107 | 6 | ||
| 2025-11-02T23:48 | 6434 | 469 | 114 | 4 | ||
| 2025-11-02T23:49 | 6672 | 455 | 86 | 3 | ||
| 2025-11-02T23:49 | 6727 | 452 | -12.5 | -33.2 | ||
| 2025-11-02T23:49 | 6842 | 445 | 19 | 2 | ||
| 2025-11-02T23:49 | 6854 | 444 | -13.5 | -28.2 | ||
| 2025-11-02T23:49 | 6915 | 441 | 327 | 4 | ||
| 2025-11-02T23:50 | 7140 | 428 | -15.7 | -33.1 | 323 | 3 |
| 2025-11-02T23:51 | 7414 | 412 | 78 | 3 | ||
| 2025-11-02T23:51 | 7524 | 406 | -18.2 | -38.6 | ||
| 2025-11-02T23:51 | 7597 | 402 | -18.1 | -47.0 | ||
| 2025-11-02T23:52 | 7754 | 394 | 104 | 2 | ||
| 2025-11-02T23:52 | 7774 | 393 | -19.6 | -38.5 | ||
| 2025-11-02T23:53 | 8131 | 374 | 79 | 1 | ||
| 2025-11-02T23:53 | 8302 | 366 | -24.3 | -42.4 | ||
| 2025-11-02T23:53 | 8373 | 362 | 13 | 6 | ||
| 2025-11-02T23:54 | 8526 | 355 | -25.2 | -50.0 | ||
| 2025-11-02T23:54 | 8658 | 348 | -24.7 | -57.8 | ||
| 2025-11-02T23:54 | 8732 | 345 | 45 | 8 | ||
| 2025-11-02T23:55 | 8883 | 338 | -25.9 | -61.8 | ||
| 2025-11-02T23:55 | 9057 | 329 | 73 | 13 | ||
| 2025-11-02T23:56 | 9246 | 321 | -27.7 | -68.2 | ||
| 2025-11-02T23:56 | 9447 | 312 | 67 | 17 | ||
| 2025-11-02T23:57 | 9848 | 295 | 57 | 16 | ||
| 2025-11-02T23:58 | 9984 | 289 | -34.4 | -64.8 | ||
| 2025-11-02T23:58 | 10254 | 278 | 50 | 15 | ||
| 2025-11-02T23:59 | 10616 | 264 | -39.9 | -66.8 | ||
| 2025-11-02T23:59 | 10672 | 262 | 50 | 14 | ||
| 2025-11-02T23:59 | 10720 | 260 | -40.0 | -66.9 | ||
| 2025-11-03T00:00 | 11080 | 247 | 39 | 13 | ||
| 2025-11-03T00:01 | 11495 | 232 | 55 | 12 | ||
| 2025-11-03T00:02 | 11727 | 224 | -47.5 | |||
| 2025-11-03T00:02 | 11903 | 218 | 45 | 12 | ||
| 2025-11-03T00:03 | 12299 | 205 | -52.0 | |||
| 2025-11-03T00:03 | 12319 | 204 | 42 | 14 | ||
| 2025-11-03T00:04 | 12580 | 196 | -54.1 | |||
| 2025-11-03T00:04 | 12747 | 191 | 24 | 13 | ||
| 2025-11-03T00:05 | 13176 | 179 | 20 | 13 | ||
| 2025-11-03T00:06 | 13615 | 167 | 22 | 13 | ||
| 2025-11-03T00:07 | 14075 | 154 | 24 | 12 | ||
| 2025-11-03T00:08 | 14248 | 150 | -67.9 | |||
| 2025-11-03T00:08 | 14535 | 143 | 26 | 11 | ||
| 2025-11-03T00:08 | 14651 | 140 | -70.7 | |||
| 2025-11-03T00:09 | 14895 | 135 | 57 | 6 | ||
| 2025-11-03T00:09 | 14911 | 134 | -70.4 | |||
| 2025-11-03T00:09 | 15119 | 130 | 54 | 5 | ||
| 2025-11-03T00:10 | 15413 | 123 | 360 | 7 | ||
| 2025-11-03T00:11 | 15675 | 118 | 18 | 10 | ||
| 2025-11-03T00:11 | 15972 | 112 | -75.9 | |||
| 2025-11-03T00:12 | 16059 | 110 | 14 | 14 | ||
| 2025-11-03T00:12 | 16304 | 106 | 18 | 9 | ||
| 2025-11-03T00:12 | 16471 | 103 | -76.5 | |||
| 2025-11-03T00:12 | 16504 | 102 | 23 | 9 | ||
| 2025-11-03T00:13 | 16595 | 101 | -75.8 | |||
| 2025-11-03T00:13 | 16795 | 97 | 94 | 8 | ||
| 2025-11-03T00:14 | 17254 | 90 | 100 | 4 | ||
| 2025-11-03T00:14 | 17278 | 89 | -79.1 | |||
| 2025-11-03T00:15 | 17520 | 85 | 43 | 4 | ||
| 2025-11-03T00:15 | 17631 | 84 | -76.8 | |||
| 2025-11-03T00:16 | 17950 | 79 | -76.7 | |||
| 2025-11-03T00:16 | 17965 | 79 | 115 | 10 | ||
| 2025-11-03T00:16 | 18156 | 77 | -76.6 | |||
| 2025-11-03T00:17 | 18367 | 74 | 146 | 8 | ||
| 2025-11-03T00:17 | 18528 | 72 | -74.9 | |||
| 2025-11-03T00:17 | 18703 | 70 | 117 | 7 | ||
| 2025-11-03T00:18 | 18744 | 69 | -73.5 | |||
| 2025-11-03T00:18 | 19005 | 66 | 101 | 4 | ||
| 2025-11-03T00:18 | 19112 | 65 | -70.8 | |||
| 2025-11-03T00:19 | 19242 | 64 | -69.5 | |||
| 2025-11-03T00:19 | 19358 | 62 | 78 | 10 | ||
| 2025-11-03T00:20 | 19759 | 58 | 86 | 11 | ||
| 2025-11-03T00:20 | 19831 | 58 | -72.3 | |||
| 2025-11-03T00:21 | 20007 | 56 | 98 | 8 | ||
| 2025-11-03T00:21 | 20128 | 55 | -68.7 | |||
| 2025-11-03T00:21 | 20259 | 54 | 84 | 8 | ||
| 2025-11-03T00:22 | 20442 | 52 | 94 | 4 | ||
| 2025-11-03T00:22 | 20533 | 51 | -68.1 | |||
| 2025-11-03T00:22 | 20559 | 51 | 82 | 6 | ||
| 2025-11-03T00:22 | 20690 | 50 | -66.0 | |||
| 2025-11-03T00:23 | 20787 | 49 | 128 | 7 | ||
| 2025-11-03T00:23 | 20963 | 48 | 111 | 6 | ||
| 2025-11-03T00:23 | 20992 | 47 | -64.8 | |||
| 2025-11-03T00:24 | 21133 | 46 | 111 | 10 | ||
| 2025-11-03T00:24 | 21474 | 44 | 123 | 13 | ||
| 2025-11-03T00:25 | 21601 | 43 | -64.9 | |||
| 2025-11-03T00:25 | 21688 | 42 | 138 | 9 | ||
| 2025-11-03T00:25 | 21879 | 41 | 129 | 11 | ||
| 2025-11-03T00:26 | 21941 | 41 | -61.5 | |||
| 2025-11-03T00:26 | 22124 | 39 | 118 | 3 | ||
| 2025-11-03T00:26 | 22273 | 39 | 68 | 5 | ||
| 2025-11-03T00:26 | 22319 | 38 | -60.4 | |||
| 2025-11-03T00:27 | 22500 | 37 | 91 | 6 | ||
| 2025-11-03T00:28 | 22848 | 35 | 128 | 4 | ||
| 2025-11-03T00:28 | 22864 | 35 | -58.9 | |||
| 2025-11-03T00:28 | 23030 | 34 | 113 | 2 | ||
| 2025-11-03T00:29 | 23313 | 33 | -58.0 | |||
| 2025-11-03T00:29 | 23452 | 32 | 79 | 1 | ||
| 2025-11-03T00:30 | 23632 | 31 | 345 | 3 | ||
| 2025-11-03T00:30 | 23969 | 29 | 67 | 6 | ||
| 2025-11-03T00:31 | 24208 | 28 | -57.0 | |||
| 2025-11-03T00:31 | 24341 | 28 | 100 | 6 | ||
| 2025-11-03T00:32 | 24697 | 26 | 112 | 5 | ||
| 2025-11-03T00:32 | 24945 | 25 | 105 | 7 | ||
| 2025-11-03T00:33 | 25227 | 24 | 118 | 11 | ||
| 2025-11-03T00:34 | 25632 | 23 | 129 | 9 | ||
| 2025-11-03T00:34 | 25805 | 22 | -56.1 | |||
| 2025-11-03T00:35 | 25895 | 22 | 140 | 4 | ||
| 2025-11-03T00:35 | 26102 | 21 | 140 | 3 | ||
| 2025-11-03T00:35 | 26223 | 21 | 103 | 3 | ||
| 2025-11-03T00:36 | 26544 | 20 | 159 | 6 | ||
| 2025-11-03T00:37 | 26773 | 19 | 165 | 4 | ||
| 2025-11-03T00:37 | 27084 | 18 | 200 | 4 | ||
| 2025-11-03T00:38 | 27379 | 17 | 113 | 2 | ||
| 2025-11-03T00:38 | 27643 | 17 | -55.0 | |||
| 2025-11-03T00:39 | 27799 | 16 | 118 | 3 | ||
| 2025-11-03T00:40 | 28164 | 15 | 172 | 5 | ||
| 2025-11-03T00:40 | 28555 | 14 | 252 | 3 | ||
| 2025-11-03T00:40 | 28597 | 14 | -56.7 | |||
| 2025-11-03T00:41 | 28782 | 14 | 212 | 6 | ||
| 2025-11-03T00:41 | 28918 | 14 | -56.9 | |||
| 2025-11-03T00:42 | 29159 | 13 | 220 | 9 | ||
| 2025-11-03T00:42 | 29460 | 12 | -54.2 | 289 | 6 | |
| 2025-11-03T00:43 | 29725 | 12 | 289 | 5 | ||
| 2025-11-03T00:43 | 29945 | 12 | 252 | 6 | ||
| 2025-11-03T00:44 | 30238 | 11 | -49.6 | |||
| 2025-11-03T00:44 | 30354 | 11 | 255 | 13 | ||
| 2025-11-03T00:45 | 30607 | 10 | 233 | 17 | ||
| 2025-11-03T00:45 | 30932 | 10 | -47.2 | 249 | 14 | |
| 2025-11-03T11:30 | 9 | 1017 | 28.1 | 24.5 | 90 | 9 |
| 2025-11-03T11:30 | 13 | 1016 | 28.3 | 24.3 | 113 | 2 |
| 2025-11-03T11:30 | 47 | 1013 | 101 | 6 | ||
| 2025-11-03T11:30 | 115 | 1005 | 27.7 | 22.6 | ||
| 2025-11-03T11:30 | 137 | 1002 | 96 | 9 | ||
| 2025-11-03T11:31 | 472 | 965 | 24.3 | 21.4 | ||
| 2025-11-03T11:31 | 478 | 964 | 95 | 9 | ||
| 2025-11-03T11:32 | 600 | 951 | 23.4 | 19.1 | ||
| 2025-11-03T11:32 | 629 | 948 | 24.0 | 15.2 | ||
| 2025-11-03T11:32 | 665 | 944 | 23.7 | 15.2 | ||
| 2025-11-03T11:32 | 724 | 938 | 23.2 | 17.2 | ||
| 2025-11-03T11:32 | 830 | 926 | 102 | 9 | ||
| 2025-11-03T11:33 | 941 | 915 | 22.2 | 13.3 | ||
| 2025-11-03T11:33 | 1000 | 909 | 22.2 | 11.6 | ||
| 2025-11-03T11:33 | 1101 | 898 | 21.3 | 14.0 | ||
| 2025-11-03T11:33 | 1183 | 890 | 112 | 9 | ||
| 2025-11-03T11:34 | 1295 | 878 | 20.3 | 12.0 | ||
| 2025-11-03T11:34 | 1454 | 862 | 19.7 | 8.1 | ||
| 2025-11-03T11:34 | 1489 | 859 | 20.0 | 6.0 | ||
| 2025-11-03T11:34 | 1537 | 854 | 19.5 | 10.0 | 113 | 8 |
| 2025-11-03T11:35 | 1629 | 845 | 19.1 | 5.2 | ||
| 2025-11-03T11:35 | 1677 | 840 | 18.7 | 8.9 | ||
| 2025-11-03T11:35 | 1755 | 833 | 18.2 | 8.2 | ||
| 2025-11-03T11:35 | 1875 | 821 | 111 | 9 | ||
| 2025-11-03T11:36 | 1989 | 810 | 17.8 | -7.6 | ||
| 2025-11-03T11:36 | 2041 | 805 | 99 | 9 | ||
| 2025-11-03T11:36 | 2194 | 791 | 17.4 | -13.4 | ||
| 2025-11-03T11:37 | 2371 | 775 | 103 | 8 | ||
| 2025-11-03T11:38 | 2691 | 746 | 106 | 10 | ||
| 2025-11-03T11:38 | 2718 | 743 | 13.7 | -13.3 | ||
| 2025-11-03T11:38 | 2868 | 730 | 13.3 | -16.6 | ||
| 2025-11-03T11:38 | 2897 | 728 | 109 | 9 | ||
| 2025-11-03T11:39 | 2999 | 719 | 12.7 | -18.2 | ||
| 2025-11-03T11:39 | 3174 | 704 | 116 | 10 | ||
| 2025-11-03T11:39 | 3244 | 698 | 11.7 | -20.2 | ||
| 2025-11-03T11:40 | 3528 | 675 | 121 | 9 | ||
| 2025-11-03T11:41 | 3674 | 663 | 9.6 | -21.8 | ||
| 2025-11-03T11:41 | 3893 | 646 | 121 | 9 | ||
| 2025-11-03T11:42 | 4202 | 622 | 5.4 | -22.8 | ||
| 2025-11-03T11:42 | 4248 | 619 | 114 | 9 | ||
| 2025-11-03T11:43 | 4544 | 596 | 3.2 | -28.0 | ||
| 2025-11-03T11:43 | 4594 | 593 | 98 | 7 | ||
| 2025-11-03T11:44 | 4753 | 581 | 2.0 | -23.6 | ||
| 2025-11-03T11:44 | 4798 | 578 | 1.4 | -13.9 | ||
| 2025-11-03T11:44 | 4901 | 571 | 0.6 | -16.7 | ||
| 2025-11-03T11:44 | 4936 | 568 | 80 | 7 | ||
| 2025-11-03T11:45 | 5011 | 563 | -0.1 | -16.0 | ||
| 2025-11-03T11:45 | 5285 | 544 | 92 | 5 | ||
| 2025-11-03T11:46 | 5509 | 529 | -3.6 | -17.9 | ||
| 2025-11-03T11:46 | 5527 | 527 | 117 | 4 | ||
| 2025-11-03T11:46 | 5626 | 521 | -4.6 | -19.2 | ||
| 2025-11-03T11:46 | 5680 | 517 | -4.6 | -27.4 | ||
| 2025-11-03T11:47 | 5765 | 512 | 89 | 5 | ||
| 2025-11-03T11:47 | 6005 | 496 | -6.8 | -26.6 | 97 | 4 |
| 2025-11-03T11:48 | 6339 | 475 | -9.2 | -30.5 | ||
| 2025-11-03T11:48 | 6345 | 475 | 47 | 4 | ||
| 2025-11-03T11:49 | 6505 | 465 | -10.7 | -31.7 | ||
| 2025-11-03T11:49 | 6561 | 462 | -11.0 | -25.6 | ||
| 2025-11-03T11:49 | 6605 | 459 | 74 | 2 | ||
| 2025-11-03T11:49 | 6616 | 459 | -11.1 | -27.7 | ||
| 2025-11-03T11:50 | 6872 | 443 | 78 | 3 | ||
| 2025-11-03T11:50 | 7056 | 433 | 120 | 3 | ||
| 2025-11-03T11:51 | 7275 | 420 | -17.0 | -32.0 | ||
| 2025-11-03T11:51 | 7337 | 417 | 107 | 3 | ||
| 2025-11-03T11:52 | 7474 | 409 | 125 | 2 | ||
| 2025-11-03T11:52 | 7548 | 405 | -19.3 | -33.2 | ||
| 2025-11-03T11:52 | 7658 | 399 | -20.1 | -36.4 | ||
| 2025-11-03T11:53 | 7829 | 390 | 76 | 1 | ||
| 2025-11-03T11:53 | 7996 | 381 | -23.0 | -36.5 | ||
| 2025-11-03T11:53 | 8031 | 380 | -22.2 | -44.0 | ||
| 2025-11-03T11:53 | 8066 | 378 | -21.5 | -44.2 | ||
| 2025-11-03T11:54 | 8181 | 372 | 312 | 1 | ||
| 2025-11-03T11:54 | 8263 | 368 | -22.9 | -47.1 | ||
| 2025-11-03T11:54 | 8328 | 365 | -22.2 | -59.3 | ||
| 2025-11-03T11:54 | 8481 | 357 | 93 | 3 | ||
| 2025-11-03T11:55 | 8767 | 343 | -24.7 | -66.2 | ||
| 2025-11-03T11:55 | 8823 | 341 | 59 | 7 | ||
| 2025-11-03T11:56 | 8903 | 337 | -25.3 | -66.6 | ||
| 2025-11-03T11:56 | 9139 | 326 | 86 | 9 | ||
| 2025-11-03T11:57 | 9342 | 317 | -28.6 | -68.8 | ||
| 2025-11-03T11:57 | 9517 | 309 | 79 | 9 | ||
| 2025-11-03T11:58 | 9893 | 293 | 68 | 8 | ||
| 2025-11-03T11:59 | 10272 | 278 | 52 | 8 | ||
| 2025-11-03T12:00 | 10495 | 269 | -38.3 | -60.4 | ||
| 2025-11-03T12:00 | 10650 | 263 | 45 | 9 | ||
| 2025-11-03T12:00 | 10656 | 263 | -39.6 | -60.5 | ||
| 2025-11-03T12:01 | 10810 | 257 | -40.0 | -66.9 | ||
| 2025-11-03T12:01 | 11020 | 249 | 65 | 6 | ||
| 2025-11-03T12:02 | 11368 | 237 | 68 | 6 | ||
| 2025-11-03T12:03 | 11717 | 224 | 36 | 6 | ||
| 2025-11-03T12:04 | 12034 | 214 | 53 | 5 | ||
| 2025-11-03T12:05 | 12382 | 203 | 19 | 7 | ||
| 2025-11-03T12:05 | 12442 | 201 | -53.4 | |||
| 2025-11-03T12:06 | 12711 | 193 | 23 | 6 | ||
| 2025-11-03T12:07 | 13053 | 182 | 18 | 4 | ||
| 2025-11-03T12:08 | 13388 | 173 | 21 | 4 | ||
| 2025-11-03T12:09 | 13724 | 164 | 24 | 4 | ||
| 2025-11-03T12:09 | 13767 | 163 | -63.8 | |||
| 2025-11-03T12:10 | 14073 | 155 | 11 | 8 | ||
| 2025-11-03T12:11 | 14409 | 146 | 11 | 8 | ||
| 2025-11-03T12:12 | 14688 | 140 | -69.7 | |||
| 2025-11-03T12:12 | 14715 | 139 | 22 | 10 | ||
| 2025-11-03T12:12 | 14957 | 133 | 355 | 12 | ||
| 2025-11-03T12:13 | 15083 | 131 | -70.7 | |||
| 2025-11-03T12:13 | 15404 | 124 | -72.5 | |||
| 2025-11-03T12:13 | 15475 | 122 | 67 | 6 | ||
| 2025-11-03T12:14 | 15677 | 118 | -74.1 | |||
| 2025-11-03T12:14 | 15738 | 117 | 86 | 4 | ||
| 2025-11-03T12:14 | 15918 | 113 | 112 | 4 | ||
| 2025-11-03T12:15 | 16069 | 110 | 120 | 1 | ||
| 2025-11-03T12:15 | 16148 | 109 | 345 | 3 | ||
| 2025-11-03T12:15 | 16208 | 108 | -76.6 | |||
| 2025-11-03T12:15 | 16361 | 105 | -76.7 | |||
| 2025-11-03T12:15 | 16403 | 104 | 8 | 6 | ||
| 2025-11-03T12:16 | 16555 | 101 | -77.4 | |||
| 2025-11-03T12:16 | 16866 | 96 | 350 | 6 | ||
| 2025-11-03T12:16 | 16915 | 95 | -76.8 | |||
| 2025-11-03T12:17 | 16986 | 94 | 38 | 4 | ||
| 2025-11-03T12:17 | 17165 | 91 | 76 | 4 | ||
| 2025-11-03T12:17 | 17304 | 89 | 64 | 3 | ||
| 2025-11-03T12:18 | 17455 | 87 | 34 | 4 | ||
| 2025-11-03T12:18 | 17509 | 86 | -76.6 | |||
| 2025-11-03T12:18 | 17664 | 84 | 91 | 2 | ||
| 2025-11-03T12:19 | 17838 | 81 | -75.1 | |||
| 2025-11-03T12:19 | 17961 | 79 | 49 | 4 | ||
| 2025-11-03T12:19 | 18012 | 79 | -74.1 | |||
| 2025-11-03T12:20 | 18186 | 76 | 41 | 5 | ||
| 2025-11-03T12:21 | 18509 | 72 | 92 | 7 | ||
| 2025-11-03T12:22 | 18842 | 68 | -73.2 | 90 | 8 | |
| 2025-11-03T12:23 | 19168 | 65 | 74 | 6 | ||
| 2025-11-03T12:23 | 19316 | 63 | 76 | 7 | ||
| 2025-11-03T12:23 | 19325 | 63 | -71.1 | |||
| 2025-11-03T12:24 | 19499 | 61 | -68.2 | |||
| 2025-11-03T12:24 | 19628 | 60 | 125 | 9 | ||
| 2025-11-03T12:24 | 19639 | 60 | -66.9 | |||
| 2025-11-03T12:25 | 19872 | 57 | 133 | 8 | ||
| 2025-11-03T12:25 | 20045 | 56 | -66.4 | |||
| 2025-11-03T12:26 | 20097 | 55 | 132 | 8 | ||
| 2025-11-03T12:26 | 20288 | 54 | 127 | 9 | ||
| 2025-11-03T12:27 | 20470 | 52 | 127 | 14 | ||
| 2025-11-03T12:27 | 20522 | 52 | -65.6 | |||
| 2025-11-03T12:28 | 20799 | 49 | 123 | 7 | ||
| 2025-11-03T12:28 | 21166 | 46 | 112 | 7 | ||
| 2025-11-03T12:29 | 21192 | 46 | -63.3 | |||
| 2025-11-03T12:29 | 21355 | 45 | 117 | 3 | ||
| 2025-11-03T12:29 | 21509 | 44 | -61.8 | 64 | 4 | |
| 2025-11-03T12:30 | 21795 | 42 | 68 | 6 | ||
| 2025-11-03T12:30 | 21826 | 42 | -62.5 | |||
| 2025-11-03T12:31 | 21976 | 41 | 89 | 8 | ||
| 2025-11-03T12:31 | 22180 | 39 | -61.2 | |||
| 2025-11-03T12:32 | 22306 | 39 | 108 | 14 | ||
| 2025-11-03T12:32 | 22640 | 37 | 114 | 7 | ||
| 2025-11-03T12:33 | 22885 | 35 | 113 | 7 | ||
| 2025-11-03T12:34 | 23196 | 34 | 116 | 5 | ||
| 2025-11-03T12:34 | 23293 | 33 | -57.6 | |||
| 2025-11-03T12:34 | 23428 | 32 | 124 | 2 | ||
| 2025-11-03T12:35 | 23547 | 32 | 167 | 3 | ||
| 2025-11-03T12:35 | 23853 | 30 | -55.7 | |||
| 2025-11-03T12:35 | 23899 | 30 | 221 | 3 | ||
| 2025-11-03T12:36 | 24248 | 28 | 262 | 1 | ||
| 2025-11-03T12:37 | 24502 | 27 | -54.4 | |||
| 2025-11-03T12:37 | 24691 | 27 | 338 | 2 | ||
| 2025-11-03T12:38 | 24860 | 26 | 148 | 3 | ||
| 2025-11-03T12:38 | 25058 | 25 | 172 | 7 | ||
| 2025-11-03T12:39 | 25451 | 24 | 218 | 3 | ||
| 2025-11-03T12:39 | 25672 | 23 | 351 | 3 | ||
| 2025-11-03T12:39 | 25698 | 23 | 356 | 4 | ||
| 2025-11-03T12:40 | 25728 | 23 | 1 | 4 | ||
| 2025-11-03T12:40 | 25956 | 22 | 54 | 3 | ||
| 2025-11-03T12:40 | 26044 | 21 | 22 | 2 | ||
| 2025-11-03T12:40 | 26135 | 21 | 354 | 3 | ||
| 2025-11-03T12:41 | 26198 | 21 | -56.5 | |||
| 2025-11-03T12:42 | 26608 | 20 | 295 | 2 | ||
| 2025-11-03T12:42 | 26838 | 19 | 276 | 4 | ||
| 2025-11-03T12:43 | 27113 | 18 | -53.9 | |||
| 2025-11-03T12:43 | 27334 | 18 | 269 | 8 | ||
| 2025-11-03T12:44 | 27599 | 17 | 266 | 9 | ||
| 2025-11-03T12:44 | 27794 | 16 | 241 | 8 | ||
| 2025-11-03T12:45 | 28079 | 16 | 241 | 8 | ||
| 2025-11-03T12:45 | 28248 | 15 | 220 | 10 | ||
| 2025-11-03T12:45 | 28290 | 15 | -48.9 | |||
| 2025-11-03T12:46 | 28648 | 14 | 220 | 8 | ||
| 2025-11-03T12:46 | 28878 | 14 | 217 | 10 | ||
| 2025-11-03T12:47 | 29264 | 13 | 241 | 11 | ||
| 2025-11-03T12:47 | 29358 | 13 | -54.3 | |||
| 2025-11-03T12:48 | 29616 | 12 | 231 | 15 | ||
| 2025-11-03T12:48 | 29934 | 12 | 246 | 14 | ||
| 2025-11-03T12:49 | 30273 | 11 | -54.3 | 231 | 13 | |
| 2025-11-03T12:50 | 30506 | 11 | 237 | 9 | ||
| 2025-11-03T12:51 | 31015 | 10 | 210 | 8 | ||
| 2025-11-03T12:51 | 31081 | 10 | -49.2 | |||
| 2025-11-03T12:52 | 31496 | 9 | 254 | 8 | ||
| 2025-11-03T12:52 | 31715 | 9 | -48.6 | |||
| 2025-11-03T12:52 | 31788 | 9 | 291 | 11 | ||
| 2025-11-03T12:53 | 32171 | 8 | 267 | 9 | ||
| 2025-11-03T12:53 | 32329 | 8 | -49.4 | |||
| 2025-11-03T12:54 | 32493 | 8 | 263 | 12 | ||
| 2025-11-03T12:54 | 32722 | 8 | -47.9 | 263 | 15 | |
| 2025-11-03T23:30 | 9 | 1017 | 29.6 | 25.8 | 90 | 7 |
| 2025-11-03T23:30 | 13 | 1016 | 29.6 | 25.6 | 94 | 1 |
| 2025-11-03T23:30 | 73 | 1009 | 28.2 | 24.4 | ||
| 2025-11-03T23:30 | 123 | 1004 | 98 | 8 | ||
| 2025-11-03T23:31 | 481 | 964 | 103 | 9 | ||
| 2025-11-03T23:32 | 659 | 944 | 23.2 | 21.3 | ||
| 2025-11-03T23:32 | 793 | 930 | 22.5 | 19.7 | ||
| 2025-11-03T23:32 | 862 | 923 | 115 | 11 | ||
| 2025-11-03T23:33 | 1236 | 884 | 119 | 10 | ||
| 2025-11-03T23:34 | 1303 | 877 | 19.6 | 16.8 | ||
| 2025-11-03T23:34 | 1503 | 857 | 18.3 | 15.4 | ||
| 2025-11-03T23:34 | 1594 | 848 | 17.7 | 15.7 | ||
| 2025-11-03T23:34 | 1600 | 847 | 116 | 9 | ||
| 2025-11-03T23:35 | 1667 | 841 | 17.6 | 13.3 | ||
| 2025-11-03T23:35 | 1734 | 834 | 17.2 | 14.8 | ||
| 2025-11-03T23:35 | 1832 | 825 | 17.3 | 11.8 | ||
| 2025-11-03T23:35 | 1936 | 815 | 16.7 | 12.7 | ||
| 2025-11-03T23:35 | 1966 | 812 | 126 | 8 | ||
| 2025-11-03T23:36 | 2344 | 777 | 111 | 8 | ||
| 2025-11-03T23:37 | 2498 | 763 | 14.6 | 8.5 | ||
| 2025-11-03T23:37 | 2691 | 745 | 13.1 | 8.2 | ||
| 2025-11-03T23:37 | 2729 | 742 | 98 | 9 | ||
| 2025-11-03T23:37 | 2779 | 738 | 12.7 | 6.7 | ||
| 2025-11-03T23:38 | 2875 | 729 | 12.8 | 4.7 | ||
| 2025-11-03T23:38 | 3112 | 709 | 94 | 9 | ||
| 2025-11-03T23:38 | 3119 | 708 | 10.9 | 5.0 | ||
| 2025-11-03T23:39 | 3254 | 697 | 10.2 | 2.1 | ||
| 2025-11-03T23:39 | 3495 | 677 | 8.5 | 0.2 | 102 | 9 |
| 2025-11-03T23:40 | 3564 | 671 | 8.0 | 0.7 | ||
| 2025-11-03T23:40 | 3809 | 652 | 6.3 | -1.4 | ||
| 2025-11-03T23:40 | 3882 | 646 | 105 | 9 | ||
| 2025-11-03T23:40 | 3935 | 642 | 6.1 | -5.5 | ||
| 2025-11-03T23:41 | 4259 | 617 | 4.3 | -6.3 | ||
| 2025-11-03T23:41 | 4278 | 615 | 114 | 9 | ||
| 2025-11-03T23:42 | 4563 | 594 | 2.7 | -11.6 | ||
| 2025-11-03T23:42 | 4665 | 587 | 104 | 9 | ||
| 2025-11-03T23:43 | 4783 | 578 | 1.7 | -16.3 | ||
| 2025-11-03T23:43 | 4852 | 573 | 1.2 | -12.6 | ||
| 2025-11-03T23:43 | 5038 | 560 | 91 | 8 | ||
| 2025-11-03T23:43 | 5044 | 560 | 0.0 | -15.9 | ||
| 2025-11-03T23:44 | 5094 | 556 | -0.3 | -18.5 | ||
| 2025-11-03T23:44 | 5137 | 553 | -0.2 | -22.4 | ||
| 2025-11-03T23:44 | 5267 | 544 | -0.9 | -34.1 | ||
| 2025-11-03T23:44 | 5412 | 535 | 71 | 8 | ||
| 2025-11-03T23:45 | 5613 | 521 | -3.9 | -21.5 | ||
| 2025-11-03T23:45 | 5670 | 517 | -4.3 | -23.4 | ||
| 2025-11-03T23:45 | 5792 | 509 | 57 | 6 | ||
| 2025-11-03T23:45 | 5838 | 507 | -5.5 | -25.0 | ||
| 2025-11-03T23:46 | 6167 | 486 | 50 | 6 | ||
| 2025-11-03T23:46 | 6194 | 484 | -8.2 | -31.0 | ||
| 2025-11-03T23:47 | 6571 | 461 | 33 | 8 | ||
| 2025-11-03T23:48 | 6814 | 447 | -12.8 | -34.8 | ||
| 2025-11-03T23:48 | 6937 | 439 | 44 | 7 | ||
| 2025-11-03T23:49 | 7296 | 419 | -16.3 | -45.7 | ||
| 2025-11-03T23:49 | 7359 | 415 | 51 | 2 | ||
| 2025-11-03T23:49 | 7430 | 412 | -15.9 | -47.0 | ||
| 2025-11-03T23:50 | 7689 | 398 | -17.6 | -52.7 | ||
| 2025-11-03T23:50 | 7784 | 393 | 39 | 3 | ||
| 2025-11-03T23:50 | 7885 | 387 | -18.1 | -61.9 | ||
| 2025-11-03T23:51 | 8055 | 379 | 37 | 3 | ||
| 2025-11-03T23:51 | 8111 | 376 | -19.6 | -62.9 | ||
| 2025-11-03T23:51 | 8221 | 370 | -20.1 | -52.1 | 28 | 4 |
| 2025-11-03T23:52 | 8619 | 351 | 26 | 8 | ||
| 2025-11-03T23:53 | 8924 | 336 | -25.9 | -67.0 | ||
| 2025-11-03T23:53 | 9015 | 332 | 23 | 8 | ||
| 2025-11-03T23:54 | 9144 | 326 | -27.7 | -68.2 | ||
| 2025-11-03T23:54 | 9189 | 324 | 23 | 9 | ||
| 2025-11-03T23:54 | 9346 | 317 | 26 | 8 | ||
| 2025-11-03T23:54 | 9353 | 317 | -28.5 | -58.3 | ||
| 2025-11-03T23:55 | 9642 | 304 | 31 | 11 | ||
| 2025-11-03T23:55 | 9848 | 295 | -32.8 | -57.1 | ||
| 2025-11-03T23:55 | 9855 | 295 | 49 | 6 | ||
| 2025-11-03T23:56 | 10259 | 279 | 87 | 7 | ||
| 2025-11-03T23:57 | 10493 | 269 | -37.9 | -63.6 | ||
| 2025-11-03T23:57 | 10605 | 265 | 65 | 7 | ||
| 2025-11-03T23:57 | 10724 | 260 | -40.0 | -65.3 | ||
| 2025-11-03T23:58 | 10774 | 259 | 62 | 8 | ||
| 2025-11-03T23:58 | 11152 | 245 | 82 | 4 | ||
| 2025-11-03T23:59 | 11345 | 238 | 101 | 4 | ||
| 2025-11-03T23:59 | 11582 | 229 | 78 | 5 | ||
| 2025-11-04T00:00 | 11830 | 221 | 64 | 5 | ||
| 2025-11-04T00:01 | 12063 | 213 | 93 | 5 | ||
| 2025-11-04T00:01 | 12129 | 211 | -51.8 | |||
| 2025-11-04T00:02 | 12474 | 200 | 79 | 5 | ||
| 2025-11-04T00:02 | 12631 | 195 | 64 | 3 | ||
| 2025-11-04T00:02 | 12831 | 189 | 39 | 2 | ||
| 2025-11-04T00:03 | 13155 | 179 | -59.1 | |||
| 2025-11-04T00:03 | 13246 | 177 | 70 | 2 | ||
| 2025-11-04T00:04 | 13664 | 165 | 3 | 1 | ||
| 2025-11-04T00:05 | 13711 | 164 | -62.9 | |||
| 2025-11-04T00:05 | 14043 | 155 | 343 | 5 | ||
| 2025-11-04T00:06 | 14281 | 149 | 18 | 5 | ||
| 2025-11-04T00:06 | 14320 | 149 | -65.9 | |||
| 2025-11-04T00:06 | 14484 | 145 | 28 | 5 | ||
| 2025-11-04T00:07 | 14652 | 141 | 43 | 5 | ||
| 2025-11-04T00:07 | 14885 | 135 | 12 | 8 | ||
| 2025-11-04T00:07 | 15121 | 130 | -70.4 | |||
| 2025-11-04T00:08 | 15210 | 128 | 37 | 6 | ||
| 2025-11-04T00:08 | 15342 | 125 | -71.5 | |||
| 2025-11-04T00:08 | 15451 | 123 | 49 | 6 | ||
| 2025-11-04T00:09 | 15792 | 116 | 10 | 5 | ||
| 2025-11-04T00:09 | 15892 | 114 | -75.4 | |||
| 2025-11-04T00:09 | 15978 | 112 | 340 | 8 | ||
| 2025-11-04T00:09 | 16028 | 111 | -74.8 | |||
| 2025-11-04T00:10 | 16124 | 109 | -73.7 | |||
| 2025-11-04T00:10 | 16172 | 109 | 2 | 5 | ||
| 2025-11-04T00:10 | 16276 | 107 | -73.6 | |||
| 2025-11-04T00:10 | 16300 | 106 | 71 | 4 | ||
| 2025-11-04T00:10 | 16388 | 105 | -72.7 | |||
| 2025-11-04T00:11 | 16654 | 100 | -74.5 | |||
| 2025-11-04T00:11 | 16785 | 98 | 87 | 5 | ||
| 2025-11-04T00:11 | 16937 | 95 | -75.5 | |||
| 2025-11-04T00:12 | 17216 | 91 | 121 | 7 | ||
| 2025-11-04T00:12 | 17398 | 88 | 135 | 6 | ||
| 2025-11-04T00:12 | 17431 | 87 | -77.0 | |||
| 2025-11-04T00:13 | 17627 | 84 | 101 | 7 | ||
| 2025-11-04T00:13 | 17893 | 81 | -77.5 | |||
| 2025-11-04T00:13 | 17929 | 80 | 81 | 7 | ||
| 2025-11-04T00:14 | 18328 | 75 | 164 | 9 | ||
| 2025-11-04T00:15 | 18602 | 71 | 166 | 9 | ||
| 2025-11-04T00:15 | 18683 | 70 | -76.9 | |||
| 2025-11-04T00:15 | 18834 | 68 | -74.3 | 128 | 4 | |
| 2025-11-04T00:16 | 18894 | 68 | 69 | 2 | ||
| 2025-11-04T00:16 | 18955 | 67 | 52 | 3 | ||
| 2025-11-04T00:16 | 19108 | 65 | -70.2 | |||
| 2025-11-04T00:16 | 19171 | 65 | 105 | 9 | ||
| 2025-11-04T00:17 | 19349 | 63 | 86 | 6 | ||
| 2025-11-04T00:17 | 19467 | 62 | -66.5 | |||
| 2025-11-04T00:17 | 19534 | 61 | 146 | 9 | ||
| 2025-11-04T00:18 | 19719 | 59 | 145 | 8 | ||
| 2025-11-04T00:19 | 20058 | 56 | -65.9 | |||
| 2025-11-04T00:19 | 20077 | 56 | 56 | 6 | ||
| 2025-11-04T00:19 | 20277 | 54 | 99 | 2 | ||
| 2025-11-04T00:20 | 20426 | 53 | -66.4 | |||
| 2025-11-04T00:20 | 20582 | 51 | 38 | 3 | ||
| 2025-11-04T00:20 | 20664 | 51 | -64.3 | |||
| 2025-11-04T00:21 | 20797 | 49 | 65 | 7 | ||
| 2025-11-04T00:21 | 20823 | 49 | -63.3 | |||
| 2025-11-04T00:21 | 21120 | 47 | 16 | 4 | ||
| 2025-11-04T00:22 | 21527 | 44 | 106 | 5 | ||
| 2025-11-04T00:23 | 21568 | 44 | -61.5 | |||
| 2025-11-04T00:23 | 21788 | 42 | 56 | 2 | ||
| 2025-11-04T00:24 | 22118 | 40 | 152 | 3 | ||
| 2025-11-04T00:24 | 22231 | 39 | 141 | 2 | ||
| 2025-11-04T00:25 | 22391 | 38 | 36 | 4 | ||
| 2025-11-04T00:25 | 22505 | 38 | 23 | 4 | ||
| 2025-11-04T00:25 | 22643 | 37 | -59.9 | |||
| 2025-11-04T00:26 | 22744 | 36 | 109 | 3 | ||
| 2025-11-04T00:26 | 22883 | 35 | 95 | 3 | ||
| 2025-11-04T00:26 | 23047 | 34 | 49 | 1 | ||
| 2025-11-04T00:27 | 23379 | 33 | 35 | 3 | ||
| 2025-11-04T00:27 | 23400 | 33 | -59.5 | |||
| 2025-11-04T00:28 | 23695 | 31 | 57 | 7 | ||
| 2025-11-04T00:28 | 23842 | 30 | -56.1 | |||
| 2025-11-04T00:29 | 24057 | 29 | 58 | 8 | ||
| 2025-11-04T00:29 | 24210 | 29 | -56.2 | |||
| 2025-11-04T00:30 | 24343 | 28 | 103 | 7 | ||
| 2025-11-04T00:31 | 24743 | 26 | 141 | 11 | ||
| 2025-11-04T00:31 | 24816 | 26 | -55.3 | |||
| 2025-11-04T00:31 | 25064 | 25 | 137 | 7 | ||
| 2025-11-04T00:32 | 25276 | 24 | 114 | 5 | ||
| 2025-11-04T00:32 | 25406 | 24 | -56.5 | |||
| 2025-11-04T00:33 | 25679 | 23 | -55.1 | |||
| 2025-11-04T00:33 | 25707 | 23 | 167 | 9 | ||
| 2025-11-04T00:34 | 25969 | 22 | 202 | 4 | ||
| 2025-11-04T00:34 | 26117 | 21 | 201 | 4 | ||
| 2025-11-04T00:34 | 26208 | 21 | 241 | 2 | ||
| 2025-11-04T00:34 | 26332 | 21 | 322 | 3 | ||
| 2025-11-04T00:35 | 26426 | 20 | 292 | 2 | ||
| 2025-11-04T00:35 | 26492 | 20 | -55.6 | |||
| 2025-11-04T00:35 | 26521 | 20 | 239 | 3 | ||
| 2025-11-04T00:35 | 26652 | 20 | 256 | 3 | ||
| 2025-11-04T00:35 | 26683 | 19 | -55.6 | |||
| 2025-11-04T00:36 | 26848 | 19 | 319 | 4 | ||
| 2025-11-04T00:36 | 26984 | 19 | 304 | 2 | ||
| 2025-11-04T00:37 | 27489 | 17 | -55.8 | 276 | 2 | |
| 2025-11-04T00:38 | 27950 | 16 | 220 | 3 | ||
| 2025-11-04T00:38 | 28075 | 16 | -54.0 | |||
| 2025-11-04T00:38 | 28194 | 15 | 222 | 5 | ||
| 2025-11-04T00:39 | 28411 | 15 | 264 | 3 | ||
| 2025-11-04T00:39 | 28586 | 14 | 231 | 4 | ||
| 2025-11-04T00:39 | 28632 | 14 | -54.0 | |||
| 2025-11-04T00:40 | 28862 | 14 | 237 | 9 | ||
| 2025-11-04T00:40 | 29052 | 13 | -51.8 | |||
| 2025-11-04T00:40 | 29151 | 13 | -49.8 | |||
| 2025-11-04T00:40 | 29199 | 13 | 197 | 7 | ||
| 2025-11-04T00:41 | 29614 | 12 | -49.7 | |||
| 2025-11-04T00:41 | 29771 | 12 | 209 | 13 | ||
| 2025-11-04T00:42 | 30341 | 11 | 210 | 13 | ||
| 2025-11-04T00:43 | 30515 | 11 | -53.4 | |||
| 2025-11-04T00:44 | 30956 | 10 | -55.8 | 216 | 15 | |
| 2025-11-04T00:44 | 31147 | 10 | -50.7 | |||
| 2025-11-04T00:45 | 31490 | 9 | 230 | 18 | ||
| 2025-11-04T00:45 | 31730 | 9 | -50.6 | 235 | 17 | |
| 2025-11-04T11:30 | 9 | 1015 | 27.9 | 25.1 | 110 | 6 |
| 2025-11-04T11:30 | 12 | 1015 | 28.1 | 24.9 | 138 | 2 |
| 2025-11-04T11:30 | 94 | 1005 | 108 | 7 | ||
| 2025-11-04T11:30 | 153 | 999 | 27.0 | 23.5 | ||
| 2025-11-04T11:31 | 369 | 975 | 25.3 | 21.8 | ||
| 2025-11-04T11:31 | 444 | 966 | 119 | 10 | ||
| 2025-11-04T11:32 | 560 | 954 | 25.0 | 18.0 | ||
| 2025-11-04T11:32 | 791 | 929 | 112 | 13 | ||
| 2025-11-04T11:32 | 814 | 926 | 23.5 | 16.8 | ||
| 2025-11-04T11:33 | 1065 | 900 | 22.0 | 15.8 | ||
| 2025-11-04T11:33 | 1139 | 893 | 111 | 12 | ||
| 2025-11-04T11:33 | 1145 | 892 | 21.6 | 15.7 | ||
| 2025-11-04T11:34 | 1253 | 881 | 21.2 | 15.1 | ||
| 2025-11-04T11:34 | 1449 | 861 | 20.4 | 12.6 | ||
| 2025-11-04T11:34 | 1513 | 855 | 110 | 17 | ||
| 2025-11-04T11:35 | 1884 | 819 | 107 | 16 | ||
| 2025-11-04T11:36 | 2010 | 807 | 15.9 | 10.9 | ||
| 2025-11-04T11:36 | 2238 | 786 | 100 | 16 | ||
| 2025-11-04T11:36 | 2296 | 780 | 15.0 | 8.7 | ||
| 2025-11-04T11:37 | 2563 | 756 | 13.6 | 6.9 | ||
| 2025-11-04T11:37 | 2579 | 754 | 96 | 17 | ||
| 2025-11-04T11:38 | 2861 | 729 | 11.5 | 5.8 | ||
| 2025-11-04T11:38 | 2918 | 725 | 87 | 12 | ||
| 2025-11-04T11:39 | 3093 | 710 | 10.4 | 3.7 | ||
| 2025-11-04T11:39 | 3261 | 695 | 83 | 14 | ||
| 2025-11-04T11:40 | 3451 | 680 | 8.4 | 2.0 | ||
| 2025-11-04T11:40 | 3617 | 666 | 7.7 | -0.3 | 71 | 13 |
| 2025-11-04T11:41 | 3742 | 656 | 7.1 | -3.5 | ||
| 2025-11-04T11:41 | 3825 | 649 | 6.5 | -1.6 | ||
| 2025-11-04T11:41 | 3975 | 638 | 62 | 13 | ||
| 2025-11-04T11:42 | 4301 | 613 | 3.4 | -2.3 | ||
| 2025-11-04T11:42 | 4346 | 609 | 51 | 13 | ||
| 2025-11-04T11:43 | 4460 | 601 | 3.0 | -5.9 | ||
| 2025-11-04T11:43 | 4549 | 594 | 2.7 | -6.7 | ||
| 2025-11-04T11:43 | 4607 | 590 | 56 | 11 | ||
| 2025-11-04T11:44 | 4816 | 575 | 1.2 | -10.0 | ||
| 2025-11-04T11:44 | 4929 | 567 | 0.9 | -15.6 | ||
| 2025-11-04T11:44 | 4972 | 564 | 53 | 10 | ||
| 2025-11-04T11:45 | 5178 | 549 | -0.7 | -18.3 | ||
| 2025-11-04T11:45 | 5338 | 538 | 47 | 12 | ||
| 2025-11-04T11:46 | 5550 | 524 | -3.3 | -24.3 | ||
| 2025-11-04T11:46 | 5665 | 517 | -4.2 | -19.2 | ||
| 2025-11-04T11:46 | 5717 | 513 | 54 | 9 | ||
| 2025-11-04T11:46 | 5724 | 513 | -4.4 | -23.5 | ||
| 2025-11-04T11:46 | 5846 | 505 | -5.4 | -18.5 | ||
| 2025-11-04T11:47 | 6005 | 495 | -6.5 | -18.8 | ||
| 2025-11-04T11:47 | 6098 | 489 | 72 | 7 | ||
| 2025-11-04T11:47 | 6173 | 484 | -7.6 | -19.2 | ||
| 2025-11-04T11:47 | 6237 | 480 | -7.7 | -23.5 | ||
| 2025-11-04T11:48 | 6419 | 469 | -9.3 | -19.6 | ||
| 2025-11-04T11:48 | 6452 | 467 | 79 | 7 | ||
| 2025-11-04T11:48 | 6622 | 457 | -10.6 | -20.5 | ||
| 2025-11-04T11:49 | 6763 | 449 | -11.0 | -24.1 | ||
| 2025-11-04T11:49 | 6838 | 444 | 82 | 7 | ||
| 2025-11-04T11:49 | 6844 | 444 | -11.3 | -29.9 | ||
| 2025-11-04T11:49 | 7053 | 432 | -12.7 | -33.4 | ||
| 2025-11-04T11:49 | 7066 | 431 | 71 | 6 | ||
| 2025-11-04T11:50 | 7105 | 429 | -12.7 | -25.0 | ||
| 2025-11-04T11:50 | 7210 | 423 | -13.3 | -25.2 | ||
| 2025-11-04T11:50 | 7261 | 420 | -13.3 | -31.0 | ||
| 2025-11-04T11:50 | 7358 | 415 | 39 | 6 | ||
| 2025-11-04T11:50 | 7364 | 415 | -13.9 | -24.3 | ||
| 2025-11-04T11:51 | 7503 | 407 | -15.1 | -26.3 | ||
| 2025-11-04T11:51 | 7594 | 402 | 55 | 7 | ||
| 2025-11-04T11:51 | 7711 | 396 | -16.7 | -29.2 | ||
| 2025-11-04T11:52 | 7880 | 387 | 33 | 7 | ||
| 2025-11-04T11:52 | 7954 | 383 | -18.2 | -37.3 | ||
| 2025-11-04T11:52 | 8061 | 378 | -18.5 | -47.4 | ||
| 2025-11-04T11:52 | 8112 | 375 | 61 | 8 | ||
| 2025-11-04T11:53 | 8382 | 362 | 36 | 9 | ||
| 2025-11-04T11:53 | 8498 | 356 | -21.6 | -46.1 | ||
| 2025-11-04T11:54 | 8720 | 346 | -23.0 | -59.8 | ||
| 2025-11-04T11:54 | 8797 | 342 | 31 | 7 | ||
| 2025-11-04T11:55 | 9034 | 331 | 40 | 7 | ||
| 2025-11-04T11:55 | 9116 | 327 | -26.8 | -51.3 | ||
| 2025-11-04T11:55 | 9224 | 322 | 40 | 6 | ||
| 2025-11-04T11:55 | 9301 | 319 | 27 | 2 | ||
| 2025-11-04T11:55 | 9326 | 318 | -27.9 | -60.1 | ||
| 2025-11-04T11:55 | 9383 | 315 | 313 | 3 | ||
| 2025-11-04T11:56 | 9506 | 310 | -28.8 | -50.9 | ||
| 2025-11-04T11:56 | 9513 | 310 | 317 | 3 | ||
| 2025-11-04T11:56 | 9636 | 304 | 306 | 3 | ||
| 2025-11-04T11:56 | 9784 | 298 | -31.0 | -58.4 | ||
| 2025-11-04T11:57 | 9859 | 295 | 299 | 4 | ||
| 2025-11-04T11:57 | 10091 | 285 | 269 | 7 | ||
| 2025-11-04T11:58 | 10255 | 279 | 241 | 6 | ||
| 2025-11-04T11:58 | 10539 | 268 | 270 | 7 | ||
| 2025-11-04T11:59 | 10701 | 261 | -38.8 | -66.0 | ||
| 2025-11-04T11:59 | 10759 | 259 | 268 | 6 | ||
| 2025-11-04T11:59 | 10851 | 256 | -40.0 | -65.3 | ||
| 2025-11-04T12:00 | 11042 | 249 | 277 | 6 | ||
| 2025-11-04T12:01 | 11456 | 234 | 231 | 7 | ||
| 2025-11-04T12:01 | 11860 | 220 | 234 | 9 | ||
| 2025-11-04T12:02 | 12182 | 209 | -50.7 | |||
| 2025-11-04T12:02 | 12236 | 208 | 221 | 8 | ||
| 2025-11-04T12:03 | 12680 | 194 | 237 | 8 | ||
| 2025-11-04T12:04 | 13129 | 181 | 245 | 8 | ||
| 2025-11-04T12:04 | 13204 | 179 | -59.4 | |||
| 2025-11-04T12:05 | 13612 | 167 | 223 | 7 | ||
| 2025-11-04T12:06 | 14075 | 155 | 206 | 5 | ||
| 2025-11-04T12:07 | 14396 | 147 | 254 | 4 | ||
| 2025-11-04T12:07 | 14412 | 147 | -68.1 | |||
| 2025-11-04T12:08 | 14842 | 136 | -71.0 | |||
| 2025-11-04T12:08 | 14874 | 136 | 283 | 5 | ||
| 2025-11-04T12:08 | 15023 | 132 | 302 | 2 | ||
| 2025-11-04T12:09 | 15182 | 129 | 351 | 4 | ||
| 2025-11-04T12:09 | 15200 | 128 | -71.0 | |||
| 2025-11-04T12:09 | 15440 | 123 | 332 | 6 | ||
| 2025-11-04T12:10 | 15886 | 114 | 339 | 10 | ||
| 2025-11-04T12:10 | 15929 | 113 | -76.4 | |||
| 2025-11-04T12:11 | 16340 | 105 | -78.8 | |||
| 2025-11-04T12:11 | 16411 | 104 | 355 | 9 | ||
| 2025-11-04T12:11 | 16447 | 104 | -77.3 | |||
| 2025-11-04T12:12 | 16813 | 97 | -78.1 | |||
| 2025-11-04T12:12 | 16848 | 97 | 356 | 8 | ||
| 2025-11-04T12:12 | 17000 | 94 | -76.2 | 29 | 7 | |
| 2025-11-04T23:30 | 9 | 1015 | 28.8 | 25.6 | 90 | 8 |
| 2025-11-04T23:30 | 12 | 1015 | 28.5 | 25.5 | 112 | 2 |
| 2025-11-04T23:30 | 41 | 1011 | 86 | 4 | ||
| 2025-11-04T23:30 | 82 | 1007 | 27.3 | 24.4 | ||
| 2025-11-04T23:30 | 142 | 1000 | 90 | 9 | ||
| 2025-11-04T23:31 | 426 | 968 | 24.6 | 22.1 | ||
| 2025-11-04T23:31 | 474 | 963 | 103 | 11 | ||
| 2025-11-04T23:32 | 777 | 930 | 100 | 10 | ||
| 2025-11-04T23:32 | 791 | 929 | 21.8 | 18.8 | ||
| 2025-11-04T23:33 | 1052 | 901 | 103 | 11 | ||
| 2025-11-04T23:34 | 1131 | 893 | 19.5 | 17.5 | ||
| 2025-11-04T23:34 | 1368 | 869 | 104 | 11 | ||
| 2025-11-04T23:34 | 1373 | 868 | 18.4 | 16.4 | ||
| 2025-11-04T23:35 | 1637 | 842 | 16.5 | 15.4 | ||
| 2025-11-04T23:35 | 1717 | 834 | 100 | 11 | ||
| 2025-11-04T23:36 | 1863 | 820 | 16.5 | 12.7 | ||
| 2025-11-04T23:36 | 1891 | 817 | 16.8 | 10.9 | ||
| 2025-11-04T23:36 | 1998 | 807 | 16.1 | 11.1 | ||
| 2025-11-04T23:36 | 2056 | 802 | 101 | 10 | ||
| 2025-11-04T23:37 | 2119 | 796 | 15.4 | 9.3 | ||
| 2025-11-04T23:37 | 2410 | 769 | 104 | 10 | ||
| 2025-11-04T23:38 | 2554 | 756 | 11.9 | 8.7 | ||
| 2025-11-04T23:38 | 2646 | 747 | 11.4 | 8.6 | ||
| 2025-11-04T23:38 | 2755 | 738 | 112 | 11 | ||
| 2025-11-04T23:39 | 2807 | 733 | 11.3 | 6.6 | ||
| 2025-11-04T23:39 | 3000 | 716 | 10.3 | 6.3 | ||
| 2025-11-04T23:39 | 3069 | 711 | 109 | 11 | ||
| 2025-11-04T23:40 | 3154 | 703 | 9.7 | 5.9 | ||
| 2025-11-04T23:40 | 3385 | 684 | 8.6 | 4.6 | ||
| 2025-11-04T23:40 | 3391 | 684 | 119 | 11 | ||
| 2025-11-04T23:41 | 3553 | 670 | 8.1 | 3.0 | ||
| 2025-11-04T23:41 | 3732 | 656 | 119 | 10 | ||
| 2025-11-04T23:42 | 3941 | 639 | 5.3 | 1.4 | ||
| 2025-11-04T23:42 | 4095 | 627 | 120 | 10 | ||
| 2025-11-04T23:43 | 4139 | 624 | 4.2 | 0.2 | ||
| 2025-11-04T23:43 | 4460 | 600 | 118 | 10 | ||
| 2025-11-04T23:44 | 4578 | 591 | 2.5 | -2.4 | ||
| 2025-11-04T23:44 | 4790 | 576 | 119 | 9 | ||
| 2025-11-04T23:45 | 4916 | 567 | 0.6 | -3.7 | ||
| 2025-11-04T23:45 | 5105 | 554 | -0.7 | -4.6 | ||
| 2025-11-04T23:45 | 5127 | 552 | 118 | 7 | ||
| 2025-11-04T23:46 | 5459 | 530 | 109 | 8 | ||
| 2025-11-04T23:47 | 5582 | 521 | -3.4 | -7.2 | ||
| 2025-11-04T23:47 | 5812 | 507 | 73 | 10 | ||
| 2025-11-04T23:48 | 6165 | 484 | 80 | 12 | ||
| 2025-11-04T23:48 | 6178 | 484 | -7.0 | -14.1 | ||
| 2025-11-04T23:49 | 6305 | 476 | -7.4 | -19.0 | ||
| 2025-11-04T23:49 | 6358 | 473 | -7.6 | -18.0 | ||
| 2025-11-04T23:49 | 6523 | 463 | 104 | 11 | ||
| 2025-11-04T23:50 | 6629 | 456 | -10.1 | -15.1 | ||
| 2025-11-04T23:50 | 6679 | 453 | -10.0 | -17.8 | ||
| 2025-11-04T23:50 | 6728 | 451 | -9.7 | -23.7 | ||
| 2025-11-04T23:50 | 6871 | 442 | -10.2 | -32.7 | ||
| 2025-11-04T23:50 | 6890 | 441 | 109 | 8 | ||
| 2025-11-04T23:51 | 7203 | 424 | -12.8 | -34.1 | ||
| 2025-11-04T23:51 | 7259 | 420 | 103 | 8 | ||
| 2025-11-04T23:51 | 7296 | 418 | -13.7 | -25.6 | ||
| 2025-11-04T23:52 | 7333 | 416 | -13.8 | -23.4 | ||
| 2025-11-04T23:52 | 7573 | 403 | -14.8 | -29.3 | ||
| 2025-11-04T23:52 | 7627 | 401 | 69 | 9 | ||
| 2025-11-04T23:52 | 7674 | 398 | -14.3 | -41.5 | ||
| 2025-11-04T23:53 | 7978 | 382 | 69 | 8 | ||
| 2025-11-04T23:54 | 8093 | 377 | -17.6 | -50.3 | ||
| 2025-11-04T23:54 | 8343 | 364 | 55 | 10 | ||
| 2025-11-04T23:55 | 8495 | 357 | -21.5 | -36.7 | ||
| 2025-11-04T23:55 | 8554 | 354 | -22.0 | -37.2 | ||
| 2025-11-04T23:55 | 8701 | 347 | 57 | 10 | ||
| 2025-11-04T23:55 | 8732 | 345 | -23.7 | -36.4 | ||
| 2025-11-04T23:56 | 8795 | 342 | -24.1 | -40.7 | ||
| 2025-11-04T23:56 | 8840 | 340 | -24.4 | -40.1 | ||
| 2025-11-04T23:56 | 8930 | 336 | -25.1 | -44.3 | ||
| 2025-11-04T23:56 | 9086 | 329 | -26.4 | -44.2 | 57 | 9 |
| 2025-11-04T23:57 | 9380 | 316 | -28.7 | -52.7 | ||
| 2025-11-04T23:57 | 9474 | 312 | 92 | 5 | ||
| 2025-11-04T23:58 | 9662 | 303 | 87 | 5 | ||
| 2025-11-04T23:58 | 9890 | 294 | 148 | 3 | ||
| 2025-11-04T23:58 | 9910 | 293 | -32.7 | -58.2 | ||
| 2025-11-04T23:59 | 10082 | 286 | 136 | 2 | ||
| 2025-11-04T23:59 | 10242 | 279 | -35.4 | -58.1 | ||
| 2025-11-04T23:59 | 10326 | 276 | -36.1 | -49.8 | ||
| 2025-11-05T00:00 | 10396 | 273 | -36.8 | -51.6 | ||
| 2025-11-05T00:00 | 10424 | 272 | 173 | 6 | ||
| 2025-11-05T00:00 | 10473 | 270 | -37.3 | -60.6 | ||
| 2025-11-05T00:00 | 10724 | 260 | 158 | 7 | ||
| 2025-11-05T00:00 | 10771 | 259 | -40.0 | -63.9 | ||
| 2025-11-05T00:01 | 11140 | 245 | 197 | 8 | ||
| 2025-11-05T00:02 | 11454 | 234 | 217 | 10 | ||
| 2025-11-05T00:03 | 11883 | 219 | 229 | 15 | ||
| 2025-11-05T00:04 | 12305 | 205 | 234 | 14 | ||
| 2025-11-05T00:04 | 12319 | 205 | -52.6 | |||
| 2025-11-05T00:05 | 12747 | 192 | 246 | 13 | ||
| 2025-11-05T00:06 | 13180 | 179 | 247 | 12 | ||
| 2025-11-05T00:07 | 13585 | 168 | -62.6 | |||
| 2025-11-05T00:07 | 13623 | 167 | 218 | 9 | ||
| 2025-11-05T00:08 | 14076 | 155 | 268 | 5 | ||
| 2025-11-05T00:09 | 14316 | 149 | 244 | 1 | ||
| 2025-11-05T00:09 | 14496 | 144 | 309 | 3 | ||
| 2025-11-05T00:09 | 14573 | 143 | -68.5 | |||
| 2025-11-05T00:10 | 14883 | 135 | 317 | 6 | ||
| 2025-11-05T00:10 | 15183 | 129 | 332 | 6 | ||
| 2025-11-05T00:11 | 15408 | 124 | -72.0 | |||
| 2025-11-05T00:11 | 15583 | 120 | 302 | 2 | ||
| 2025-11-05T00:11 | 15618 | 119 | -73.6 | |||
| 2025-11-05T00:12 | 15840 | 115 | 293 | 4 | ||
| 2025-11-05T00:12 | 15908 | 114 | -75.3 | |||
| 2025-11-05T00:13 | 16340 | 105 | 352 | 7 | ||
| 2025-11-05T00:13 | 16637 | 100 | -79.2 | |||
| 2025-11-05T00:13 | 16654 | 100 | 8 | 8 | ||
| 2025-11-05T00:14 | 16756 | 98 | -79.3 | |||
| 2025-11-05T00:14 | 16942 | 95 | 69 | 6 | ||
| 2025-11-05T00:14 | 17018 | 94 | -80.1 | |||
| 2025-11-05T00:14 | 17195 | 91 | -79.4 | |||
| 2025-11-05T00:15 | 17228 | 90 | 91 | 4 | ||
| 2025-11-05T00:15 | 17452 | 87 | 90 | 3 | ||
| 2025-11-05T00:15 | 17626 | 84 | 56 | 1 | ||
| 2025-11-05T00:15 | 17684 | 83 | -78.3 | |||
| 2025-11-05T00:16 | 17938 | 80 | 164 | 3 | ||
| 2025-11-05T00:16 | 17945 | 79 | -79.6 | |||
| 2025-11-05T00:16 | 18128 | 77 | 147 | 3 | ||
| 2025-11-05T00:17 | 18278 | 75 | 69 | 4 | ||
| 2025-11-05T00:17 | 18412 | 73 | -78.1 | |||
| 2025-11-05T00:17 | 18558 | 71 | 69 | 4 | ||
| 2025-11-05T00:17 | 18585 | 71 | -77.3 | |||
| 2025-11-05T00:18 | 18713 | 69 | -76.3 | |||
| 2025-11-05T00:18 | 18785 | 69 | 353 | 4 | ||
| 2025-11-05T00:18 | 18801 | 68 | -74.1 | |||
| 2025-11-05T00:19 | 19108 | 65 | 354 | 8 | ||
| 2025-11-05T00:19 | 19247 | 63 | -71.0 | |||
| 2025-11-05T00:19 | 19503 | 61 | 89 | 7 | ||
| 2025-11-05T00:19 | 19515 | 61 | -69.7 | |||
| 2025-11-05T00:20 | 19706 | 59 | -68.8 | |||
| 2025-11-05T00:20 | 19923 | 57 | 101 | 7 | ||
| 2025-11-05T00:21 | 20063 | 55 | 57 | 5 | ||
| 2025-11-05T00:21 | 20105 | 55 | -66.6 | |||
| 2025-11-05T00:21 | 20184 | 54 | 41 | 6 | ||
| 2025-11-05T00:21 | 20286 | 53 | -66.2 | |||
| 2025-11-05T00:21 | 20388 | 52 | 67 | 6 | ||
| 2025-11-05T00:22 | 20700 | 50 | 68 | 11 | ||
| 2025-11-05T00:22 | 20774 | 49 | -64.1 | |||
| 2025-11-05T00:23 | 20901 | 48 | 81 | 5 | ||
| 2025-11-05T00:23 | 21043 | 47 | 42 | 4 | ||
| 2025-11-05T00:23 | 21122 | 47 | -61.7 | |||
| 2025-11-05T00:24 | 21439 | 44 | 107 | 4 | ||
| 2025-11-05T00:24 | 21625 | 43 | 93 | 5 | ||
| 2025-11-05T00:25 | 21910 | 41 | 139 | 6 | ||
| 2025-11-05T00:25 | 22045 | 40 | 119 | 1 | ||
| 2025-11-05T00:26 | 22220 | 39 | 28 | 3 | ||
| 2025-11-05T00:26 | 22351 | 38 | 51 | 5 | ||
| 2025-11-05T00:26 | 22514 | 37 | -59.7 | |||
| 2025-11-05T00:27 | 22617 | 37 | 35 | 6 | ||
| 2025-11-05T00:27 | 22913 | 35 | 75 | 4 | ||
| 2025-11-05T00:28 | 23096 | 34 | -58.5 | |||
| 2025-11-05T00:28 | 23247 | 33 | 47 | 5 | ||
| 2025-11-05T00:29 | 23403 | 32 | -55.6 | |||
| 2025-11-05T00:29 | 23582 | 31 | 76 | 9 | ||
| 2025-11-05T00:30 | 23826 | 30 | 82 | 6 | ||
| 2025-11-05T00:30 | 24017 | 29 | 82 | 10 | ||
| 2025-11-05T00:31 | 24262 | 28 | -56.9 | 108 | 10 | |
| 2025-11-05T11:30 | 9 | 1014 | 27.4 | 24.9 | 100 | 7 |
| 2025-11-05T11:30 | 12 | 1014 | 27.6 | 24.5 | 114 | 2 |
| 2025-11-05T11:30 | 42 | 1011 | 98 | 4 | ||
| 2025-11-05T11:30 | 90 | 1005 | 27.1 | 23.1 | ||
| 2025-11-05T11:30 | 99 | 1004 | 101 | 8 | ||
| 2025-11-05T11:31 | 420 | 968 | 110 | 8 | ||
| 2025-11-05T11:32 | 578 | 951 | 22.6 | 21.2 | ||
| 2025-11-05T11:32 | 765 | 931 | 21.8 | 18.6 | 115 | 11 |
| 2025-11-05T11:33 | 825 | 924 | 21.9 | 17.9 | ||
| 2025-11-05T11:33 | 1069 | 899 | 20.8 | 16.4 | ||
| 2025-11-05T11:33 | 1123 | 893 | 117 | 13 | ||
| 2025-11-05T11:34 | 1481 | 857 | 125 | 11 | ||
| 2025-11-05T11:34 | 1511 | 854 | 18.4 | 14.3 | ||
| 2025-11-05T11:35 | 1841 | 822 | 127 | 11 | ||
| 2025-11-05T11:36 | 1958 | 810 | 14.7 | 12.7 | ||
| 2025-11-05T11:36 | 2107 | 796 | 14.0 | 12.2 | ||
| 2025-11-05T11:36 | 2195 | 788 | 130 | 14 | ||
| 2025-11-05T11:37 | 2266 | 781 | 13.2 | 11.3 | ||
| 2025-11-05T11:37 | 2543 | 756 | 125 | 15 | ||
| 2025-11-05T11:37 | 2549 | 755 | 11.8 | 9.4 | ||
| 2025-11-05T11:37 | 2591 | 752 | 12.4 | 8.9 | ||
| 2025-11-05T11:38 | 2754 | 737 | 11.4 | 8.3 | ||
| 2025-11-05T11:38 | 2905 | 724 | 127 | 12 | ||
| 2025-11-05T11:38 | 2923 | 722 | 10.6 | 8.0 | ||
| 2025-11-05T11:39 | 3256 | 694 | 127 | 11 | ||
| 2025-11-05T11:39 | 3303 | 690 | 8.6 | 5.5 | ||
| 2025-11-05T11:40 | 3474 | 676 | 7.8 | 4.6 | ||
| 2025-11-05T11:40 | 3600 | 666 | 118 | 13 | ||
| 2025-11-05T11:41 | 3745 | 654 | 6.3 | 2.6 | ||
| 2025-11-05T11:41 | 3857 | 645 | 5.6 | 2.1 | ||
| 2025-11-05T11:41 | 3952 | 637 | 114 | 11 | ||
| 2025-11-05T11:42 | 4085 | 627 | 4.0 | 1.7 | ||
| 2025-11-05T11:42 | 4276 | 613 | 3.1 | 0.5 | ||
| 2025-11-05T11:42 | 4293 | 611 | 96 | 10 | ||
| 2025-11-05T11:43 | 4417 | 602 | 3.2 | -0.6 | ||
| 2025-11-05T11:43 | 4638 | 586 | 100 | 10 | ||
| 2025-11-05T11:44 | 4702 | 581 | 1.5 | -1.9 | ||
| 2025-11-05T11:44 | 4993 | 560 | 87 | 9 | ||
| 2025-11-05T11:45 | 5359 | 535 | 90 | 11 | ||
| 2025-11-05T11:45 | 5371 | 535 | -1.6 | -5.8 | ||
| 2025-11-05T11:46 | 5494 | 526 | -2.3 | -6.3 | ||
| 2025-11-05T11:46 | 5726 | 511 | 95 | 11 | ||
| 2025-11-05T11:47 | 5818 | 505 | -4.3 | -8.4 | ||
| 2025-11-05T11:47 | 5922 | 499 | -4.2 | -9.0 | ||
| 2025-11-05T11:47 | 6095 | 488 | 81 | 12 | ||
| 2025-11-05T11:48 | 6164 | 484 | -5.2 | -12.6 | ||
| 2025-11-05T11:48 | 6405 | 469 | -6.6 | -14.6 | ||
| 2025-11-05T11:48 | 6464 | 466 | 76 | 11 | ||
| 2025-11-05T11:49 | 6689 | 452 | 83 | 9 | ||
| 2025-11-05T11:49 | 6737 | 450 | -9.3 | -16.3 | ||
| 2025-11-05T11:49 | 6861 | 442 | -9.7 | -20.8 | ||
| 2025-11-05T11:50 | 6942 | 438 | -10.1 | -21.4 | ||
| 2025-11-05T11:50 | 7036 | 433 | -10.7 | -25.3 | ||
| 2025-11-05T11:50 | 7060 | 431 | 76 | 9 | ||
| 2025-11-05T11:50 | 7114 | 428 | -11.2 | -28.3 | ||
| 2025-11-05T11:50 | 7228 | 422 | -12.1 | -26.5 | ||
| 2025-11-05T11:51 | 7252 | 420 | 65 | 8 | ||
| 2025-11-05T11:51 | 7332 | 416 | -12.9 | -31.7 | ||
| 2025-11-05T11:51 | 7407 | 412 | -13.6 | -29.9 | ||
| 2025-11-05T11:51 | 7464 | 409 | -14.1 | -23.5 | ||
| 2025-11-05T11:52 | 7629 | 400 | 85 | 9 | ||
| 2025-11-05T11:52 | 7673 | 398 | -15.5 | -26.1 | ||
| 2025-11-05T11:52 | 7762 | 393 | -16.1 | -29.7 | ||
| 2025-11-05T11:52 | 7894 | 386 | -17.0 | -23.3 | ||
| 2025-11-05T11:52 | 7926 | 385 | 107 | 4 | ||
| 2025-11-05T11:53 | 8092 | 376 | -18.5 | -22.0 | ||
| 2025-11-05T11:53 | 8222 | 370 | 117 | 2 | ||
| 2025-11-05T11:53 | 8325 | 365 | -19.9 | -25.5 | ||
| 2025-11-05T11:54 | 8410 | 360 | 190 | 3 | ||
| 2025-11-05T11:54 | 8592 | 352 | -22.1 | -27.6 | ||
| 2025-11-05T11:54 | 8680 | 347 | -22.6 | -30.4 | ||
| 2025-11-05T11:54 | 8743 | 344 | -23.0 | -29.9 | ||
| 2025-11-05T11:55 | 8787 | 342 | 190 | 2 | ||
| 2025-11-05T11:55 | 8813 | 341 | -23.5 | -28.2 | ||
| 2025-11-05T11:55 | 8892 | 338 | -24.0 | -30.1 | ||
| 2025-11-05T11:55 | 9010 | 332 | 216 | 5 | ||
| 2025-11-05T11:55 | 9124 | 327 | -25.8 | -29.5 | ||
| 2025-11-05T11:56 | 9267 | 321 | 221 | 5 | ||
| 2025-11-05T11:56 | 9287 | 320 | -27.2 | -30.3 | ||
| 2025-11-05T11:56 | 9371 | 316 | -27.6 | -35.5 | ||
| 2025-11-05T11:56 | 9410 | 314 | -27.5 | -42.3 | ||
| 2025-11-05T11:57 | 9649 | 304 | 241 | 7 | ||
| 2025-11-05T11:57 | 9751 | 300 | -30.3 | -44.0 | ||
| 2025-11-05T11:57 | 9889 | 294 | -31.5 | -43.4 | ||
| 2025-11-05T11:57 | 9929 | 292 | 261 | 12 | ||
| 2025-11-05T11:58 | 10064 | 287 | -32.7 | -44.1 | ||
| 2025-11-05T11:58 | 10242 | 279 | -34.2 | -45.5 | ||
| 2025-11-05T11:58 | 10327 | 276 | 244 | 12 | ||
| 2025-11-05T11:59 | 10432 | 272 | -36.0 | -42.9 | ||
| 2025-11-05T11:59 | 10503 | 269 | -36.6 | -41.7 | ||
| 2025-11-05T11:59 | 10656 | 263 | -37.9 | -43.8 | ||
| 2025-11-05T11:59 | 10722 | 261 | 251 | 13 | ||
| 2025-11-05T12:00 | 10735 | 260 | -38.6 | -47.4 | ||
| 2025-11-05T12:00 | 10902 | 254 | -40.0 | -47.4 | ||
| 2025-11-05T12:00 | 11132 | 246 | 240 | 15 | ||
| 2025-11-05T12:01 | 11563 | 230 | 236 | 12 | ||
| 2025-11-05T12:02 | 11981 | 216 | 248 | 17 | ||
| 2025-11-05T12:03 | 12335 | 205 | 243 | 16 | ||
| 2025-11-05T12:04 | 12436 | 202 | -53.4 | |||
| 2025-11-05T12:04 | 12767 | 191 | 241 | 15 | ||
| 2025-11-05T12:05 | 13234 | 178 | 249 | 17 | ||
| 2025-11-05T12:06 | 13729 | 164 | 252 | 19 | ||
| 2025-11-05T12:07 | 14045 | 156 | -66.3 | |||
| 2025-11-05T12:07 | 14211 | 151 | 252 | 14 | ||
| 2025-11-05T12:08 | 14330 | 149 | -67.9 | |||
| 2025-11-05T12:08 | 14489 | 145 | 282 | 11 | ||
| 2025-11-05T12:08 | 14505 | 144 | -67.9 | |||
| 2025-11-05T12:08 | 14782 | 138 | -69.5 | |||
| 2025-11-05T12:09 | 14980 | 133 | 297 | 9 | ||
| 2025-11-05T12:10 | 15298 | 126 | -71.9 | |||
| 2025-11-05T12:10 | 15412 | 124 | 334 | 9 | ||
| 2025-11-05T12:10 | 15577 | 120 | -73.3 | |||
| 2025-11-05T12:10 | 15686 | 118 | 342 | 9 | ||
| 2025-11-05T12:10 | 15703 | 118 | -72.8 | |||
| 2025-11-05T12:11 | 15930 | 113 | 330 | 5 | ||
| 2025-11-05T12:11 | 16056 | 111 | -75.2 | |||
| 2025-11-05T12:11 | 16199 | 108 | 323 | 8 | ||
| 2025-11-05T12:12 | 16654 | 100 | -76.5 | |||
| 2025-11-05T12:12 | 16669 | 100 | -76.6 | |||
| 2025-11-05T12:12 | 16684 | 99 | 352 | 6 | ||
| 2025-11-05T12:13 | 17002 | 94 | 40 | 4 | ||
| 2025-11-05T12:13 | 17134 | 92 | -78.8 | |||
| 2025-11-05T12:14 | 17428 | 87 | -78.6 | |||
| 2025-11-05T12:14 | 17456 | 87 | 45 | 4 | ||
| 2025-11-05T12:14 | 17615 | 85 | -78.8 | |||
| 2025-11-05T12:15 | 17832 | 81 | 35 | 5 | ||
| 2025-11-05T12:15 | 18006 | 79 | 13 | 1 | ||
| 2025-11-05T12:15 | 18098 | 78 | -78.0 | 146 | 1 | |
| 2025-11-05T23:30 | 9 | 1015 | 27.9 | 24.9 | 110 | 8 |
| 2025-11-05T23:30 | 12 | 1014 | 27.5 | 24.2 | 110 | 2 |
| 2025-11-05T23:30 | 24 | 1013 | 100 | 5 | ||
| 2025-11-05T23:30 | 32 | 1012 | 27.1 | 22.5 | ||
| 2025-11-05T23:30 | 62 | 1009 | 110 | 10 | ||
| 2025-11-05T23:31 | 176 | 996 | 26.3 | 21.3 | ||
| 2025-11-05T23:31 | 413 | 969 | 122 | 13 | ||
| 2025-11-05T23:31 | 520 | 958 | 24.3 | 19.2 | ||
| 2025-11-05T23:32 | 665 | 942 | 22.9 | 20.1 | ||
| 2025-11-05T23:32 | 763 | 931 | 132 | 14 | ||
| 2025-11-05T23:33 | 952 | 911 | 21.1 | 17.9 | ||
| 2025-11-05T23:33 | 1106 | 895 | 135 | 14 | ||
| 2025-11-05T23:34 | 1318 | 874 | 18.6 | 17.4 | ||
| 2025-11-05T23:34 | 1441 | 861 | 134 | 10 | ||
| 2025-11-05T23:35 | 1563 | 849 | 17.1 | 15.6 | ||
| 2025-11-05T23:35 | 1640 | 842 | 17.5 | 14.6 | ||
| 2025-11-05T23:35 | 1799 | 826 | 150 | 8 | ||
| 2025-11-05T23:35 | 1843 | 822 | 16.3 | 12.7 | ||
| 2025-11-05T23:36 | 1975 | 809 | 15.8 | 11.4 | ||
| 2025-11-05T23:36 | 2075 | 800 | 15.3 | 9.2 | ||
| 2025-11-05T23:36 | 2176 | 790 | 163 | 8 | ||
| 2025-11-05T23:37 | 2302 | 779 | 13.9 | 10.1 | ||
| 2025-11-05T23:37 | 2557 | 756 | 167 | 11 | ||
| 2025-11-05T23:38 | 2697 | 743 | 11.6 | 8.6 | ||
| 2025-11-05T23:38 | 2897 | 725 | 10.4 | 6.9 | ||
| 2025-11-05T23:38 | 2934 | 722 | 165 | 11 | ||
| 2025-11-05T23:39 | 3065 | 711 | 9.4 | 5.9 | ||
| 2025-11-05T23:39 | 3307 | 691 | 171 | 10 | ||
| 2025-11-05T23:39 | 3386 | 684 | 7.9 | 4.7 | ||
| 2025-11-05T23:40 | 3645 | 663 | 6.3 | 3.8 | ||
| 2025-11-05T23:40 | 3676 | 660 | 180 | 10 | ||
| 2025-11-05T23:40 | 3757 | 654 | 5.8 | 3.5 | ||
| 2025-11-05T23:41 | 3893 | 643 | 5.0 | 2.9 | ||
| 2025-11-05T23:41 | 4047 | 631 | 3.8 | 2.3 | 179 | 8 |
| 2025-11-05T23:41 | 4150 | 623 | 3.3 | 1.8 | ||
| 2025-11-05T23:42 | 4410 | 604 | 171 | 6 | ||
| 2025-11-05T23:43 | 4620 | 588 | 0.7 | -0.3 | ||
| 2025-11-05T23:43 | 4787 | 576 | 171 | 6 | ||
| 2025-11-05T23:43 | 4879 | 569 | -0.4 | -1.8 | ||
| 2025-11-05T23:44 | 4986 | 562 | -0.4 | -2.6 | ||
| 2025-11-05T23:44 | 5186 | 548 | 185 | 8 | ||
| 2025-11-05T23:45 | 5529 | 525 | -2.6 | -5.1 | ||
| 2025-11-05T23:45 | 5574 | 522 | 172 | 9 | ||
| 2025-11-05T23:46 | 5924 | 499 | 165 | 7 | ||
| 2025-11-05T23:46 | 6071 | 490 | -6.0 | -8.0 | ||
| 2025-11-05T23:47 | 6151 | 485 | 145 | 6 | ||
| 2025-11-05T23:47 | 6433 | 468 | -8.2 | -9.8 | ||
| 2025-11-05T23:48 | 6543 | 461 | 159 | 8 | ||
| 2025-11-05T23:48 | 6679 | 453 | -9.5 | -11.3 | ||
| 2025-11-05T23:49 | 6934 | 439 | 158 | 7 | ||
| 2025-11-05T23:49 | 7000 | 435 | -11.6 | -13.9 | ||
| 2025-11-05T23:49 | 7162 | 426 | -12.3 | -14.4 | ||
| 2025-11-05T23:50 | 7338 | 416 | 143 | 8 | ||
| 2025-11-05T23:50 | 7398 | 413 | -14.1 | -16.1 | ||
| 2025-11-05T23:50 | 7564 | 404 | -14.7 | -18.0 | ||
| 2025-11-05T23:50 | 7610 | 401 | 143 | 6 | ||
| 2025-11-05T23:50 | 7657 | 399 | -15.3 | -17.7 | ||
| 2025-11-05T23:51 | 7856 | 388 | -16.8 | -19.3 | ||
| 2025-11-05T23:51 | 8006 | 381 | 131 | 6 | ||
| 2025-11-05T23:51 | 8051 | 378 | -18.1 | -21.6 | ||
| 2025-11-05T23:52 | 8158 | 373 | -18.7 | -21.6 | ||
| 2025-11-05T23:52 | 8247 | 368 | 150 | 4 | ||
| 2025-11-05T23:52 | 8299 | 366 | -19.3 | -25.7 | ||
| 2025-11-05T23:52 | 8359 | 363 | 149 | 3 | ||
| 2025-11-05T23:53 | 8487 | 357 | 198 | 4 | ||
| 2025-11-05T23:53 | 8548 | 354 | -21.0 | -27.7 | ||
| 2025-11-05T23:53 | 8773 | 343 | -22.9 | -31.6 | ||
| 2025-11-05T23:53 | 8842 | 340 | 180 | 4 | ||
| 2025-11-05T23:54 | 8935 | 336 | -24.3 | -33.6 | ||
| 2025-11-05T23:54 | 8985 | 333 | -24.6 | -35.4 | ||
| 2025-11-05T23:54 | 9056 | 330 | 220 | 3 | ||
| 2025-11-05T23:54 | 9092 | 328 | -25.3 | -32.9 | ||
| 2025-11-05T23:54 | 9196 | 324 | 255 | 4 | ||
| 2025-11-05T23:55 | 9366 | 316 | -27.6 | -35.1 | ||
| 2025-11-05T23:55 | 9449 | 313 | 231 | 4 | ||
| 2025-11-05T23:55 | 9581 | 307 | 234 | 3 | ||
| 2025-11-05T23:56 | 9742 | 300 | -30.8 | -39.8 | ||
| 2025-11-05T23:56 | 9824 | 297 | 263 | 3 | ||
| 2025-11-05T23:56 | 9985 | 290 | -32.6 | -36.7 | ||
| 2025-11-05T23:56 | 10018 | 289 | 203 | 4 | ||
| 2025-11-05T23:57 | 10155 | 283 | 202 | 4 | ||
| 2025-11-05T23:57 | 10310 | 277 | 192 | 7 | ||
| 2025-11-05T23:58 | 10704 | 261 | 209 | 7 | ||
| 2025-11-05T23:58 | 10922 | 253 | -39.8 | -43.0 | ||
| 2025-11-05T23:59 | 10955 | 252 | -40.0 | -43.5 | 235 | 7 |
| 2025-11-05T23:59 | 11300 | 240 | 266 | 10 | ||
| 2025-11-06T00:00 | 11689 | 226 | 239 | 12 | ||
| 2025-11-06T00:01 | 11992 | 216 | -49.2 | 242 | 15 | |
| 2025-11-06T00:01 | 12104 | 212 | 231 | 16 | ||
| 2025-11-06T00:02 | 12251 | 207 | 239 | 19 | ||
| 2025-11-06T00:03 | 12642 | 195 | 244 | 20 | ||
| 2025-11-06T00:04 | 12954 | 186 | -58.0 | |||
| 2025-11-06T00:04 | 13047 | 183 | 244 | 18 | ||
| 2025-11-06T00:05 | 13441 | 172 | 245 | 16 | ||
| 2025-11-06T00:05 | 13632 | 167 | -63.7 | |||
| 2025-11-06T00:06 | 13850 | 161 | 273 | 15 | ||
| 2025-11-06T00:07 | 14303 | 149 | 290 | 12 | ||
| 2025-11-06T00:07 | 14462 | 145 | -68.4 | |||
| 2025-11-06T00:08 | 14629 | 141 | -68.0 | |||
| 2025-11-06T00:08 | 14654 | 141 | 308 | 9 | ||
| 2025-11-06T00:08 | 14976 | 133 | 307 | 5 | ||
| 2025-11-06T00:09 | 15193 | 129 | 341 | 8 | ||
| 2025-11-06T00:09 | 15238 | 128 | -71.0 | |||
| 2025-11-06T00:09 | 15494 | 122 | -72.4 | |||
| 2025-11-06T00:10 | 15701 | 118 | 353 | 10 | ||
| 2025-11-06T00:10 | 15760 | 117 | -73.3 | |||
| 2025-11-06T00:10 | 15928 | 113 | -73.9 | |||
| 2025-11-06T00:10 | 15952 | 113 | 326 | 7 | ||
| 2025-11-06T00:11 | 16253 | 107 | -75.6 | |||
| 2025-11-06T00:11 | 16330 | 106 | 337 | 12 | ||
| 2025-11-06T00:11 | 16567 | 102 | -76.6 | |||
| 2025-11-06T00:12 | 16724 | 99 | 33 | 3 | ||
| 2025-11-06T00:12 | 16927 | 95 | 340 | 4 | ||
| 2025-11-06T00:13 | 17201 | 91 | 351 | 3 | ||
| 2025-11-06T00:13 | 17258 | 90 | -76.8 | |||
| 2025-11-06T00:14 | 17669 | 84 | 130 | 3 | ||
| 2025-11-06T00:14 | 17852 | 81 | -78.2 | |||
| 2025-11-06T00:14 | 17965 | 80 | -76.3 | |||
| 2025-11-06T00:15 | 18132 | 77 | 271 | 2 | ||
| 2025-11-06T00:15 | 18324 | 75 | -77.3 | |||
| 2025-11-06T00:15 | 18354 | 74 | 359 | 6 | ||
| 2025-11-06T00:15 | 18362 | 74 | 1 | 6 | ||
| 2025-11-06T00:16 | 18603 | 71 | 76 | 3 | ||
| 2025-11-06T00:16 | 18626 | 71 | -75.0 | |||
| 2025-11-06T00:16 | 18730 | 70 | 134 | 5 | ||
| 2025-11-06T00:17 | 18919 | 68 | 138 | 5 | ||
| 2025-11-06T00:17 | 19129 | 65 | 92 | 2 | ||
| 2025-11-06T00:17 | 19258 | 64 | 341 | 3 | ||
| 2025-11-06T00:18 | 19397 | 62 | -73.7 | |||
| 2025-11-06T00:18 | 19502 | 61 | 352 | 7 | ||
| 2025-11-06T00:19 | 19645 | 60 | -72.6 | |||
| 2025-11-06T00:19 | 19870 | 57 | 43 | 7 | ||
| 2025-11-06T00:19 | 19921 | 57 | -70.9 | |||
| 2025-11-06T00:20 | 20017 | 56 | 47 | 6 | ||
| 2025-11-06T00:20 | 20049 | 56 | -69.9 | |||
| 2025-11-06T00:20 | 20178 | 55 | 21 | 8 | ||
| 2025-11-06T00:21 | 20483 | 52 | -65.4 | |||
| 2025-11-06T00:21 | 20564 | 51 | 56 | 12 | ||
| 2025-11-06T00:22 | 20924 | 48 | -65.3 | |||
| 2025-11-06T00:22 | 20936 | 48 | 55 | 7 | ||
| 2025-11-06T00:23 | 21169 | 46 | -63.6 | |||
| 2025-11-06T00:23 | 21315 | 45 | 87 | 8 | ||
| 2025-11-06T00:24 | 21536 | 44 | -62.5 | |||
| 2025-11-06T00:24 | 21712 | 42 | 118 | 6 | ||
| 2025-11-06T00:25 | 22041 | 40 | 101 | 3 | ||
| 2025-11-06T00:25 | 22292 | 39 | 100 | 2 | ||
| 2025-11-06T00:26 | 22644 | 37 | -58.7 | |||
| 2025-11-06T00:26 | 22696 | 36 | 73 | 2 | ||
| 2025-11-06T00:27 | 22871 | 35 | -58.7 | 99 | 4 | |
| 2025-11-06T00:27 | 23090 | 34 | 65 | 3 | ||
| 2025-11-06T00:28 | 23219 | 33 | 50 | 4 | ||
| 2025-11-06T00:29 | 23604 | 31 | 86 | 6 | ||
| 2025-11-06T00:29 | 23646 | 31 | -59.8 | |||
| 2025-11-06T00:29 | 23810 | 30 | 107 | 9 | ||
| 2025-11-06T00:29 | 23955 | 30 | -57.5 | |||
| 2025-11-06T00:30 | 23979 | 30 | 109 | 2 | ||
| 2025-11-06T00:30 | 24148 | 29 | 45 | 3 | ||
| 2025-11-06T00:30 | 24308 | 28 | 95 | 3 | ||
| 2025-11-06T00:31 | 24397 | 28 | 150 | 4 | ||
| 2025-11-06T00:31 | 24585 | 27 | 187 | 3 | ||
| 2025-11-06T00:31 | 24706 | 26 | 205 | 6 | ||
| 2025-11-06T00:31 | 24756 | 26 | -54.4 | |||
| 2025-11-06T00:32 | 24955 | 25 | -53.3 | 196 | 12 | |
| 2025-11-06T00:32 | 25136 | 25 | 186 | 5 | ||
| 2025-11-06T00:33 | 25348 | 24 | 267 | 1 | ||
| 2025-11-06T00:33 | 25569 | 23 | 278 | 3 | ||
| 2025-11-06T00:34 | 25767 | 22 | 229 | 4 | ||
| 2025-11-06T00:34 | 25881 | 22 | 260 | 3 | ||
| 2025-11-06T00:34 | 26001 | 22 | 318 | 4 | ||
| 2025-11-06T00:35 | 26306 | 21 | 351 | 4 | ||
| 2025-11-06T00:35 | 26338 | 20 | -53.3 | 357 | 5 | |
| 2025-11-06T00:35 | 26370 | 20 | 4 | 5 | ||
| 2025-11-06T00:36 | 26629 | 20 | 7 | 5 | ||
| 2025-11-06T00:36 | 26798 | 19 | -51.9 | |||
| 2025-11-06T00:37 | 26903 | 19 | 28 | 6 | ||
| 2025-11-06T00:37 | 27223 | 18 | 46 | 3 | ||
| 2025-11-06T00:38 | 27599 | 17 | 167 | 4 | ||
| 2025-11-06T00:39 | 27827 | 16 | 193 | 4 | ||
| 2025-11-06T00:39 | 28033 | 16 | 190 | 4 | ||
| 2025-11-06T00:39 | 28159 | 15 | 201 | 3 | ||
| 2025-11-06T00:40 | 28331 | 15 | 157 | 3 | ||
| 2025-11-06T00:40 | 28413 | 15 | 174 | 2 | ||
| 2025-11-06T00:40 | 28458 | 15 | -52.0 | |||
| 2025-11-06T00:41 | 28867 | 14 | -50.4 | 244 | 3 | |
| 2025-11-06T00:41 | 29060 | 13 | -47.8 | |||
| 2025-11-06T00:42 | 29108 | 13 | 277 | 7 | ||
| 2025-11-06T00:42 | 29236 | 13 | -48.8 | 280 | 8 | |
| 2025-11-06T11:30 | 9 | 1012 | 28.0 | 24.4 | 150 | 7 |
| 2025-11-06T11:30 | 12 | 1012 | 28.3 | 24.5 | 134 | 2 |
| 2025-11-06T11:30 | 69 | 1005 | 143 | 10 | ||
| 2025-11-06T11:30 | 101 | 1002 | 28.0 | 22.9 | ||
| 2025-11-06T11:31 | 429 | 965 | 149 | 12 | ||
| 2025-11-06T11:32 | 728 | 933 | 22.3 | 19.8 | ||
| 2025-11-06T11:32 | 796 | 926 | 160 | 12 | ||
| 2025-11-06T11:33 | 1177 | 886 | 164 | 12 | ||
| 2025-11-06T11:33 | 1228 | 881 | 19.1 | 15.8 | ||
| 2025-11-06T11:34 | 1523 | 851 | 17.5 | 12.0 | ||
| 2025-11-06T11:34 | 1547 | 849 | 151 | 12 | ||
| 2025-11-06T11:34 | 1584 | 845 | 17.4 | 10.5 | ||
| 2025-11-06T11:35 | 1644 | 839 | 16.8 | 13.3 | ||
| 2025-11-06T11:35 | 1816 | 822 | 16.3 | 10.8 | ||
| 2025-11-06T11:35 | 1865 | 818 | 16.3 | 10.8 | ||
| 2025-11-06T11:35 | 1914 | 813 | 16.8 | 9.2 | 152 | 9 |
| 2025-11-06T11:35 | 1957 | 809 | 17.2 | 4.8 | ||
| 2025-11-06T11:35 | 1994 | 806 | 17.5 | 1.9 | ||
| 2025-11-06T11:36 | 2085 | 797 | 16.9 | 6.1 | ||
| 2025-11-06T11:36 | 2206 | 786 | 138 | 7 | ||
| 2025-11-06T11:36 | 2255 | 781 | 15.9 | 4.6 | ||
| 2025-11-06T11:36 | 2303 | 777 | 15.6 | 5.8 | ||
| 2025-11-06T11:36 | 2346 | 773 | 15.1 | 9.5 | ||
| 2025-11-06T11:37 | 2509 | 759 | 14.5 | 7.8 | ||
| 2025-11-06T11:37 | 2569 | 753 | 169 | 7 | ||
| 2025-11-06T11:37 | 2732 | 739 | 13.0 | 6.4 | ||
| 2025-11-06T11:38 | 2877 | 726 | 12.3 | 4.5 | ||
| 2025-11-06T11:38 | 2932 | 721 | 175 | 9 | ||
| 2025-11-06T11:38 | 2999 | 716 | 11.5 | 5.6 | ||
| 2025-11-06T11:39 | 3301 | 690 | 183 | 10 | ||
| 2025-11-06T11:39 | 3313 | 689 | 9.6 | 4.0 | ||
| 2025-11-06T11:39 | 3394 | 683 | 9.1 | 3.5 | ||
| 2025-11-06T11:40 | 3676 | 660 | 179 | 12 | ||
| 2025-11-06T11:40 | 3714 | 657 | 7.0 | 2.5 | ||
| 2025-11-06T11:41 | 3942 | 639 | 5.3 | 0.7 | ||
| 2025-11-06T11:41 | 4000 | 634 | 5.6 | -5.7 | ||
| 2025-11-06T11:41 | 4052 | 630 | 5.0 | -0.2 | ||
| 2025-11-06T11:41 | 4058 | 629 | 182 | 13 | ||
| 2025-11-06T11:41 | 4174 | 620 | 4.4 | -3.1 | ||
| 2025-11-06T11:42 | 4422 | 602 | 2.5 | -1.7 | ||
| 2025-11-06T11:42 | 4446 | 600 | 181 | 14 | ||
| 2025-11-06T11:43 | 4741 | 578 | 0.6 | -3.0 | ||
| 2025-11-06T11:43 | 4820 | 573 | 0.3 | -4.7 | ||
| 2025-11-06T11:43 | 4846 | 571 | 186 | 14 | ||
| 2025-11-06T11:43 | 4905 | 567 | -0.2 | -6.8 | ||
| 2025-11-06T11:43 | 4963 | 563 | -0.6 | -5.6 | ||
| 2025-11-06T11:44 | 5094 | 553 | -1.0 | -9.1 | ||
| 2025-11-06T11:44 | 5185 | 547 | -1.6 | -7.1 | ||
| 2025-11-06T11:44 | 5237 | 543 | 189 | 14 | ||
| 2025-11-06T11:44 | 5244 | 543 | -1.9 | -7.4 | ||
| 2025-11-06T11:44 | 5297 | 539 | -2.2 | -5.9 | ||
| 2025-11-06T11:45 | 5482 | 527 | -3.7 | -6.8 | ||
| 2025-11-06T11:45 | 5556 | 522 | -3.7 | -10.5 | ||
| 2025-11-06T11:45 | 5638 | 517 | 193 | 12 | ||
| 2025-11-06T11:45 | 5678 | 514 | -4.3 | -7.4 | ||
| 2025-11-06T11:46 | 5984 | 495 | -5.5 | -10.5 | ||
| 2025-11-06T11:46 | 6045 | 491 | 195 | 13 | ||
| 2025-11-06T11:46 | 6112 | 487 | -6.3 | -10.7 | ||
| 2025-11-06T11:46 | 6206 | 481 | -6.6 | -12.1 | ||
| 2025-11-06T11:47 | 6447 | 466 | 196 | 12 | ||
| 2025-11-06T11:47 | 6587 | 458 | -9.2 | -10.7 | ||
| 2025-11-06T11:48 | 6850 | 442 | 191 | 12 | ||
| 2025-11-06T11:48 | 6986 | 435 | -11.5 | -13.5 | ||
| 2025-11-06T11:49 | 7254 | 420 | 198 | 12 | ||
| 2025-11-06T11:49 | 7395 | 412 | -13.5 | -17.0 | ||
| 2025-11-06T11:50 | 7621 | 400 | 204 | 10 | ||
| 2025-11-06T11:50 | 7628 | 400 | -13.9 | -19.4 | ||
| 2025-11-06T11:51 | 7933 | 384 | -16.5 | -20.5 | ||
| 2025-11-06T11:51 | 8035 | 379 | 193 | 9 | ||
| 2025-11-06T11:51 | 8143 | 373 | -17.9 | -21.6 | ||
| 2025-11-06T11:52 | 8441 | 359 | 207 | 11 | ||
| 2025-11-06T11:52 | 8659 | 348 | 200 | 12 | ||
| 2025-11-06T11:53 | 9067 | 329 | 207 | 11 | ||
| 2025-11-06T11:54 | 9217 | 323 | -25.6 | -29.0 | ||
| 2025-11-06T11:54 | 9347 | 317 | 207 | 9 | ||
| 2025-11-06T11:55 | 9643 | 304 | 222 | 8 | ||
| 2025-11-06T11:56 | 10049 | 287 | 241 | 10 | ||
| 2025-11-06T11:56 | 10091 | 286 | -32.2 | -35.4 | ||
| 2025-11-06T11:57 | 10464 | 271 | 241 | 8 | ||
| 2025-11-06T11:58 | 10750 | 260 | 232 | 9 | ||
| 2025-11-06T11:58 | 11004 | 250 | -39.9 | -43.7 | ||
| 2025-11-06T11:58 | 11014 | 250 | -40.0 | -43.8 | ||
| 2025-11-06T11:59 | 11153 | 245 | 238 | 14 | ||
| 2025-11-06T11:59 | 11484 | 233 | 249 | 14 | ||
| 2025-11-06T12:00 | 11869 | 220 | 252 | 14 | ||
| 2025-11-06T12:01 | 12075 | 213 | 253 | 19 | ||
| 2025-11-06T12:02 | 12367 | 204 | -52.4 | |||
| 2025-11-06T12:02 | 12456 | 201 | 261 | 20 | ||
| 2025-11-06T12:03 | 12839 | 189 | 267 | 22 | ||
| 2025-11-06T12:04 | 13187 | 179 | 266 | 22 | ||
| 2025-11-06T12:05 | 13566 | 169 | 266 | 26 | ||
| 2025-11-06T12:05 | 13756 | 163 | -64.0 | |||
| 2025-11-06T12:05 | 13779 | 163 | 267 | 25 | ||
| 2025-11-06T12:06 | 13981 | 158 | -64.3 | |||
| 2025-11-06T12:06 | 14060 | 156 | 290 | 18 | ||
| 2025-11-06T12:06 | 14217 | 152 | 305 | 15 | ||
| 2025-11-06T12:06 | 14319 | 149 | -64.0 | |||
| 2025-11-06T12:07 | 14442 | 146 | 313 | 14 | ||
| 2025-11-06T12:07 | 14753 | 139 | 320 | 11 | ||
| 2025-11-06T12:07 | 14811 | 138 | -68.0 | 320 | 10 | |
| 2025-11-06T23:30 | 9 | 1011 | 28.9 | 25.3 | 190 | 8 |
| 2025-11-06T23:30 | 13 | 1010 | 28.7 | 24.7 | 169 | 4 |
| 2025-11-06T23:30 | 64 | 1005 | 176 | 13 | ||
| 2025-11-06T23:31 | 185 | 991 | 27.2 | 23.0 | ||
| 2025-11-06T23:31 | 415 | 966 | 179 | 15 | ||
| 2025-11-06T23:32 | 645 | 941 | 23.0 | 20.9 | ||
| 2025-11-06T23:32 | 789 | 925 | 180 | 16 | ||
| 2025-11-06T23:32 | 792 | 925 | 22.0 | 19.0 | ||
| 2025-11-06T23:32 | 852 | 919 | 22.3 | 17.4 | ||
| 2025-11-06T23:33 | 974 | 906 | 21.5 | 15.8 | ||
| 2025-11-06T23:33 | 1090 | 894 | 20.9 | 14.6 | 192 | 16 |
| 2025-11-06T23:33 | 1201 | 882 | 20.4 | 14.3 | ||
| 2025-11-06T23:33 | 1264 | 876 | 20.1 | 13.6 | ||
| 2025-11-06T23:34 | 1315 | 871 | 19.7 | 13.9 | ||
| 2025-11-06T23:34 | 1432 | 859 | 19.5 | 10.8 | ||
| 2025-11-06T23:34 | 1470 | 855 | 185 | 10 | ||
| 2025-11-06T23:34 | 1593 | 843 | 18.7 | 14.2 | ||
| 2025-11-06T23:35 | 1813 | 822 | 17.6 | 12.9 | ||
| 2025-11-06T23:35 | 1850 | 818 | 204 | 11 | ||
| 2025-11-06T23:35 | 1968 | 807 | 16.9 | 11.0 | ||
| 2025-11-06T23:36 | 2132 | 792 | 16.5 | 9.0 | ||
| 2025-11-06T23:36 | 2228 | 783 | 210 | 14 | ||
| 2025-11-06T23:36 | 2401 | 767 | 15.9 | 4.6 | ||
| 2025-11-06T23:37 | 2613 | 748 | 212 | 13 | ||
| 2025-11-06T23:37 | 2690 | 741 | 13.2 | 4.9 | ||
| 2025-11-06T23:38 | 2886 | 724 | 11.8 | 5.9 | ||
| 2025-11-06T23:38 | 2993 | 715 | 211 | 15 | ||
| 2025-11-06T23:38 | 3170 | 699 | 10.6 | 3.2 | ||
| 2025-11-06T23:39 | 3259 | 692 | 10.4 | 3.4 | ||
| 2025-11-06T23:39 | 3372 | 683 | 212 | 18 | ||
| 2025-11-06T23:39 | 3511 | 671 | 9.1 | 2.7 | ||
| 2025-11-06T23:40 | 3671 | 659 | 8.9 | -0.2 | ||
| 2025-11-06T23:40 | 3755 | 652 | 213 | 20 | ||
| 2025-11-06T23:40 | 3883 | 642 | 7.5 | -1.0 | ||
| 2025-11-06T23:41 | 4137 | 623 | 209 | 19 | ||
| 2025-11-06T23:42 | 4402 | 603 | 3.2 | -2.3 | ||
| 2025-11-06T23:42 | 4513 | 594 | 211 | 18 | ||
| 2025-11-06T23:43 | 4706 | 580 | 0.8 | -1.6 | ||
| 2025-11-06T23:43 | 4893 | 567 | 212 | 17 | ||
| 2025-11-06T23:44 | 5134 | 550 | -1.4 | -3.0 | ||
| 2025-11-06T23:44 | 5285 | 540 | 211 | 17 | ||
| 2025-11-06T23:44 | 5324 | 537 | -1.6 | -4.9 | ||
| 2025-11-06T23:45 | 5519 | 524 | -3.0 | -7.0 | ||
| 2025-11-06T23:45 | 5677 | 514 | -3.7 | -7.1 | 207 | 18 |
| 2025-11-06T23:46 | 6069 | 489 | 219 | 16 | ||
| 2025-11-06T23:46 | 6253 | 477 | -7.5 | -8.4 | ||
| 2025-11-06T23:47 | 6461 | 465 | 219 | 14 | ||
| 2025-11-06T23:48 | 6666 | 453 | -10.0 | -11.3 | ||
| 2025-11-06T23:48 | 6854 | 442 | 211 | 18 | ||
| 2025-11-06T23:48 | 6892 | 440 | -10.6 | -13.2 | ||
| 2025-11-06T23:49 | 7111 | 427 | -11.4 | -15.1 | ||
| 2025-11-06T23:49 | 7239 | 420 | 214 | 17 | ||
| 2025-11-06T23:50 | 7443 | 409 | -13.2 | -17.0 | ||
| 2025-11-06T23:50 | 7623 | 400 | 217 | 16 | ||
| 2025-11-06T23:50 | 7761 | 392 | -15.1 | -19.0 | ||
| 2025-11-06T23:51 | 7945 | 383 | 222 | 17 | ||
| 2025-11-06T23:51 | 8111 | 375 | -17.8 | -20.9 | ||
| 2025-11-06T23:52 | 8330 | 364 | 241 | 17 | ||
| 2025-11-06T23:52 | 8536 | 354 | -20.4 | -23.7 | ||
| 2025-11-06T23:53 | 8719 | 345 | 237 | 14 | ||
| 2025-11-06T23:54 | 9112 | 327 | -24.7 | -28.1 | 230 | 13 |
| 2025-11-06T23:55 | 9505 | 310 | 234 | 14 | ||
| 2025-11-06T23:55 | 9605 | 306 | -28.7 | -30.6 | ||
| 2025-11-06T23:56 | 9883 | 294 | 234 | 12 | ||
| 2025-11-06T23:56 | 10170 | 282 | -32.8 | -34.8 | ||
| 2025-11-06T23:57 | 10272 | 278 | 245 | 13 | ||
| 2025-11-06T23:57 | 10467 | 271 | -35.1 | -39.7 | ||
| 2025-11-06T23:58 | 10649 | 263 | 243 | 15 | ||
| 2025-11-06T23:58 | 10722 | 261 | -37.3 | -41.8 | ||
| 2025-11-06T23:59 | 11038 | 249 | 242 | 15 | ||
| 2025-11-06T23:59 | 11045 | 249 | -40.0 | -43.5 | ||
| 2025-11-07T00:00 | 11442 | 235 | 261 | 13 | ||
| 2025-11-07T00:01 | 11861 | 220 | 266 | 14 | ||
| 2025-11-07T00:01 | 12038 | 215 | -48.8 | |||
| 2025-11-07T00:02 | 12259 | 207 | 270 | 14 | ||
| 2025-11-07T00:03 | 12635 | 196 | 284 | 14 | ||
| 2025-11-07T00:04 | 13030 | 184 | 285 | 20 | ||
| 2025-11-07T00:04 | 13291 | 176 | -59.3 | |||
| 2025-11-07T00:05 | 13426 | 173 | 292 | 28 | ||
| 2025-11-07T00:05 | 13611 | 168 | -60.6 | |||
| 2025-11-07T00:06 | 13803 | 163 | 285 | 24 | ||
| 2025-11-07T00:06 | 13946 | 159 | -62.7 | |||
| 2025-11-07T00:06 | 14084 | 155 | 292 | 19 | ||
| 2025-11-07T00:07 | 14479 | 146 | 300 | 12 | ||
| 2025-11-07T00:08 | 14683 | 141 | -67.8 | |||
| 2025-11-07T00:08 | 14818 | 138 | 290 | 6 | ||
| 2025-11-07T00:09 | 15128 | 131 | 244 | 6 | ||
| 2025-11-07T00:09 | 15174 | 130 | -71.1 | |||
| 2025-11-07T00:10 | 15614 | 120 | 221 | 8 | ||
| 2025-11-07T00:11 | 15895 | 114 | 221 | 8 | ||
| 2025-11-07T00:11 | 16125 | 110 | -78.5 | |||
| 2025-11-07T00:11 | 16267 | 107 | 288 | 8 | ||
| 2025-11-07T00:12 | 16572 | 102 | -80.3 | |||
| 2025-11-07T00:12 | 16589 | 101 | 289 | 7 | ||
| 2025-11-07T00:12 | 16717 | 99 | 279 | 4 | ||
| 2025-11-07T00:13 | 16850 | 97 | 209 | 4 | ||
| 2025-11-07T00:13 | 17001 | 94 | -79.3 | |||
| 2025-11-07T00:13 | 17164 | 92 | 234 | 4 | ||
| 2025-11-07T00:14 | 17436 | 87 | -80.2 | |||
| 2025-11-07T00:14 | 17493 | 86 | 145 | 3 | ||
| 2025-11-07T00:14 | 17744 | 83 | 66 | 3 | ||
| 2025-11-07T00:15 | 17963 | 80 | 95 | 9 | ||
| 2025-11-07T00:16 | 18236 | 76 | 139 | 8 | ||
| 2025-11-07T00:16 | 18264 | 75 | -78.1 | |||
| 2025-11-07T00:16 | 18480 | 73 | 128 | 5 | ||
| 2025-11-07T00:16 | 18647 | 71 | 125 | 7 | ||
| 2025-11-07T00:17 | 18813 | 69 | 100 | 6 | ||
| 2025-11-07T00:17 | 19108 | 65 | 125 | 10 | ||
| 2025-11-07T00:18 | 19284 | 63 | -72.1 | |||
| 2025-11-07T00:18 | 19572 | 60 | 143 | 6 | ||
| 2025-11-07T00:19 | 19753 | 58 | -68.3 | |||
| 2025-11-07T00:19 | 19952 | 57 | 173 | 4 | ||
| 2025-11-07T00:20 | 20050 | 56 | -68.4 | |||
| 2025-11-07T00:20 | 20112 | 55 | 177 | 3 | ||
| 2025-11-07T00:20 | 20269 | 54 | 130 | 4 | ||
| 2025-11-07T00:21 | 20462 | 52 | -68.4 | |||
| 2025-11-07T00:21 | 20577 | 51 | 100 | 4 | ||
| 2025-11-07T00:21 | 20627 | 51 | -66.6 | |||
| 2025-11-07T00:21 | 20683 | 50 | 50 | 4 | ||
| 2025-11-07T00:22 | 20973 | 48 | 83 | 6 | ||
| 2025-11-07T00:22 | 21150 | 46 | -65.4 | |||
| 2025-11-07T00:23 | 21289 | 45 | 83 | 11 | ||
| 2025-11-07T00:24 | 21665 | 43 | 121 | 15 | ||
| 2025-11-07T00:24 | 21903 | 41 | 133 | 12 | ||
| 2025-11-07T00:25 | 21977 | 41 | -61.2 | |||
| 2025-11-07T00:25 | 22166 | 39 | 136 | 13 | ||
| 2025-11-07T00:26 | 22489 | 37 | 168 | 9 | ||
| 2025-11-07T00:27 | 22888 | 35 | 138 | 11 | ||
| 2025-11-07T00:28 | 23203 | 33 | 150 | 10 | ||
| 2025-11-07T00:28 | 23241 | 33 | -57.9 | |||
| 2025-11-07T00:29 | 23595 | 31 | 151 | 2 | ||
| 2025-11-07T00:29 | 23864 | 30 | 159 | 8 | ||
| 2025-11-07T00:29 | 23880 | 30 | -56.1 | |||
| 2025-11-07T00:30 | 24165 | 29 | -53.7 | |||
| 2025-11-07T00:30 | 24188 | 29 | 170 | 2 | ||
| 2025-11-07T00:31 | 24441 | 27 | 242 | 2 | ||
| 2025-11-07T00:31 | 24537 | 27 | -51.9 | |||
| 2025-11-07T00:31 | 24586 | 27 | 49 | 3 | ||
| 2025-11-07T00:32 | 24830 | 26 | 77 | 4 | ||
| 2025-11-07T00:33 | 25165 | 25 | 344 | 2 | ||
| 2025-11-07T00:33 | 25192 | 24 | -52.1 | |||
| 2025-11-07T00:33 | 25356 | 24 | 309 | 3 | ||
| 2025-11-07T00:33 | 25521 | 23 | 349 | 6 | ||
| 2025-11-07T00:34 | 25773 | 22 | 7 | 3 | ||
| 2025-11-07T00:35 | 26009 | 22 | 1 | 3 | ||
| 2025-11-07T00:35 | 26221 | 21 | 10 | 3 | ||
| 2025-11-07T00:36 | 26444 | 20 | 282 | 4 | ||
| 2025-11-07T00:36 | 26607 | 20 | -53.1 | |||
| 2025-11-07T00:37 | 26873 | 19 | 294 | 2 | ||
| 2025-11-07T00:37 | 27049 | 18 | 182 | 3 | ||
| 2025-11-07T00:37 | 27083 | 18 | -52.9 | |||
| 2025-11-07T00:37 | 27261 | 18 | 209 | 5 | ||
| 2025-11-07T00:38 | 27521 | 17 | 209 | 3 | ||
| 2025-11-07T00:38 | 27676 | 17 | -51.3 | |||
| 2025-11-07T00:38 | 27718 | 17 | 184 | 3 | ||
| 2025-11-07T00:39 | 28041 | 16 | 259 | 3 | ||
| 2025-11-07T00:40 | 28299 | 15 | -48.6 | 255 | 4 | |
| 2025-11-07T00:40 | 28567 | 15 | 221 | 7 | ||
| 2025-11-07T00:41 | 28846 | 14 | 238 | 9 | ||
| 2025-11-07T00:42 | 29236 | 13 | -46.2 | |||
| 2025-11-07T00:42 | 29288 | 13 | 249 | 9 | ||
| 2025-11-07T00:43 | 29656 | 12 | 255 | 10 | ||
| 2025-11-07T00:44 | 30162 | 11 | 287 | 11 | ||
| 2025-11-07T00:45 | 30457 | 11 | -46.8 | |||
| 2025-11-07T00:45 | 30640 | 11 | 282 | 13 | ||
| 2025-11-07T00:46 | 31154 | 10 | 268 | 13 | ||
| 2025-11-07T00:46 | 31221 | 10 | -49.0 | |||
| 2025-11-07T00:47 | 31572 | 9 | 248 | 13 | ||
| 2025-11-07T00:47 | 31868 | 9 | -45.8 | |||
| 2025-11-07T00:48 | 31996 | 9 | -45.7 | 241 | 21 | |
| 2025-11-07T11:30 | 9 | 1011 | 25.2 | 24.5 | 210 | 4 |
| 2025-11-07T11:30 | 13 | 1010 | 25.3 | 24.1 | 221 | 1 |
| 2025-11-07T11:30 | 82 | 1003 | 26.0 | 23.1 | ||
| 2025-11-07T11:30 | 88 | 1002 | 218 | 6 | ||
| 2025-11-07T11:31 | 223 | 987 | 25.2 | 21.7 | ||
| 2025-11-07T11:31 | 338 | 974 | 26.5 | 18.6 | ||
| 2025-11-07T11:31 | 432 | 964 | 225 | 11 | ||
| 2025-11-07T11:32 | 739 | 931 | 24.3 | 17.5 | ||
| 2025-11-07T11:32 | 779 | 926 | 224 | 11 | ||
| 2025-11-07T11:33 | 1024 | 901 | 23.1 | 15.4 | ||
| 2025-11-07T11:33 | 1119 | 891 | 219 | 9 | ||
| 2025-11-07T11:34 | 1252 | 878 | 21.9 | 14.5 | ||
| 2025-11-07T11:34 | 1426 | 860 | 245 | 9 | ||
| 2025-11-07T11:34 | 1432 | 860 | 21.3 | 13.7 | ||
| 2025-11-07T11:35 | 1782 | 826 | 19.3 | 10.3 | ||
| 2025-11-07T11:35 | 1794 | 824 | 251 | 6 | ||
| 2025-11-07T11:36 | 1987 | 806 | 17.8 | 9.2 | ||
| 2025-11-07T11:36 | 2098 | 796 | 259 | 4 | ||
| 2025-11-07T11:37 | 2377 | 770 | 15.3 | 6.8 | ||
| 2025-11-07T11:37 | 2469 | 762 | 282 | 4 | ||
| 2025-11-07T11:37 | 2537 | 756 | 14.7 | 6.5 | ||
| 2025-11-07T11:38 | 2797 | 733 | 270 | 7 | ||
| 2025-11-07T11:39 | 3170 | 701 | 287 | 9 | ||
| 2025-11-07T11:39 | 3258 | 694 | 10.3 | 2.9 | ||
| 2025-11-07T11:40 | 3553 | 669 | 279 | 8 | ||
| 2025-11-07T11:40 | 3771 | 652 | 6.2 | 1.9 | ||
| 2025-11-07T11:41 | 3938 | 639 | 301 | 7 | ||
| 2025-11-07T11:42 | 4259 | 614 | 292 | 8 | ||
| 2025-11-07T11:42 | 4487 | 597 | 276 | 11 | ||
| 2025-11-07T11:43 | 4613 | 587 | 0.5 | -0.9 | ||
| 2025-11-07T11:43 | 4711 | 580 | 0.6 | -1.5 | ||
| 2025-11-07T11:43 | 4852 | 570 | 282 | 13 | ||
| 2025-11-07T11:44 | 5214 | 545 | 273 | 13 | ||
| 2025-11-07T11:45 | 5345 | 536 | -3.3 | -4.9 | ||
| 2025-11-07T11:45 | 5435 | 530 | -3.9 | -6.5 | ||
| 2025-11-07T11:45 | 5572 | 521 | 284 | 14 | ||
| 2025-11-07T11:45 | 5583 | 520 | -3.1 | -8.7 | ||
| 2025-11-07T11:46 | 5700 | 513 | -4.0 | -9.2 | ||
| 2025-11-07T11:46 | 5864 | 502 | -5.2 | -8.8 | ||
| 2025-11-07T11:46 | 5888 | 501 | 275 | 13 | ||
| 2025-11-07T11:47 | 6067 | 489 | -5.7 | -8.0 | ||
| 2025-11-07T11:47 | 6273 | 477 | 239 | 13 | ||
| 2025-11-07T11:48 | 6675 | 453 | 241 | 15 | ||
| 2025-11-07T11:49 | 7085 | 429 | 237 | 16 | ||
| 2025-11-07T11:50 | 7428 | 410 | -13.2 | -15.6 | ||
| 2025-11-07T11:50 | 7499 | 406 | 232 | 14 | ||
| 2025-11-07T11:51 | 7903 | 385 | 235 | 17 | ||
| 2025-11-07T11:52 | 8296 | 366 | 240 | 15 | ||
| 2025-11-07T11:52 | 8336 | 364 | -18.9 | -21.8 | ||
| 2025-11-07T11:53 | 8699 | 346 | 244 | 15 | ||
| 2025-11-07T11:54 | 9080 | 329 | 241 | 13 | ||
| 2025-11-07T11:55 | 9431 | 313 | -26.4 | -29.9 | ||
| 2025-11-07T11:55 | 9443 | 313 | 249 | 12 | ||
| 2025-11-07T11:56 | 9813 | 297 | 257 | 14 | ||
| 2025-11-07T11:57 | 10178 | 282 | 258 | 14 | ||
| 2025-11-07T11:57 | 10222 | 281 | -32.6 | -36.4 | ||
| 2025-11-07T11:58 | 10558 | 267 | 261 | 14 | ||
| 2025-11-07T11:59 | 10959 | 252 | 261 | 14 | ||
| 2025-11-07T12:00 | 11122 | 246 | -40.0 | -44.8 | ||
| 2025-11-07T12:00 | 11359 | 238 | 254 | 14 | ||
| 2025-11-07T12:01 | 11722 | 225 | 255 | 15 | ||
| 2025-11-07T12:02 | 12063 | 214 | 254 | 16 | ||
| 2025-11-07T12:03 | 12423 | 203 | 254 | 17 | ||
| 2025-11-07T12:04 | 12601 | 197 | -53.3 | |||
| 2025-11-07T12:04 | 12792 | 191 | 256 | 19 | ||
| 2025-11-07T12:05 | 13174 | 180 | 254 | 18 | ||
| 2025-11-07T12:06 | 13590 | 169 | 256 | 19 | ||
| 2025-11-07T12:06 | 13698 | 166 | -63.5 | |||
| 2025-11-07T12:07 | 13985 | 158 | 257 | 17 | ||
| 2025-11-07T12:08 | 14215 | 152 | -67.0 | |||
| 2025-11-07T12:08 | 14308 | 150 | 264 | 13 | ||
| 2025-11-07T12:08 | 14477 | 146 | -67.1 | |||
| 2025-11-07T12:08 | 14555 | 144 | 243 | 10 | ||
| 2025-11-07T12:09 | 14674 | 141 | -68.1 | |||
| 2025-11-07T12:09 | 14822 | 138 | 231 | 14 | ||
| 2025-11-07T12:09 | 14936 | 135 | -68.9 | |||
| 2025-11-07T12:10 | 15223 | 129 | 253 | 14 | ||
| 2025-11-07T12:10 | 15654 | 119 | 276 | 15 | ||
| 2025-11-07T12:11 | 15886 | 115 | -76.0 | |||
| 2025-11-07T12:11 | 16148 | 110 | 282 | 16 | ||
| 2025-11-07T12:12 | 16341 | 106 | -79.1 | |||
| 2025-11-07T12:12 | 16449 | 104 | -77.4 | 280 | 14 | |
| 2025-11-07T12:12 | 16643 | 101 | -77.4 | |||
| 2025-11-07T12:13 | 16766 | 98 | 295 | 8 | ||
| 2025-11-07T12:13 | 16820 | 98 | -76.9 | |||
| 2025-11-07T12:13 | 16924 | 96 | 290 | 3 | ||
| 2025-11-07T12:13 | 17036 | 94 | 231 | 3 | ||
| 2025-11-07T12:14 | 17256 | 90 | 224 | 6 | ||
| 2025-11-07T12:14 | 17556 | 86 | 193 | 6 | ||
| 2025-11-07T12:15 | 17598 | 85 | -78.1 | |||
| 2025-11-07T12:15 | 17737 | 83 | 158 | 10 | ||
| 2025-11-07T12:15 | 17972 | 80 | -78.6 | 175 | 12 | |
| 2025-11-07T12:16 | 18225 | 76 | 183 | 8 | ||
| 2025-11-07T12:17 | 18435 | 74 | 156 | 12 | ||
| 2025-11-07T12:17 | 18450 | 73 | -75.6 | 150 | 13 | |
| 2025-11-07T12:17 | 18455 | 73 | -74.9 | 123 | 12 | |
| 2025-11-07T23:30 | 9 | 1013 | 27.5 | 25.9 | 210 | 4 |
| 2025-11-07T23:30 | 12 | 1013 | 27.4 | 25.2 | 156 | 1 |
| 2025-11-07T23:30 | 43 | 1010 | 201 | 4 | ||
| 2025-11-07T23:30 | 86 | 1005 | 27.3 | 24.0 | ||
| 2025-11-07T23:31 | 368 | 973 | 219 | 7 | ||
| 2025-11-07T23:31 | 413 | 968 | 24.5 | 22.0 | ||
| 2025-11-07T23:32 | 496 | 959 | 24.1 | 21.2 | ||
| 2025-11-07T23:32 | 705 | 936 | 233 | 7 | ||
| 2025-11-07T23:32 | 751 | 931 | 22.6 | 17.7 | ||
| 2025-11-07T23:33 | 876 | 918 | 22.0 | 17.4 | ||
| 2025-11-07T23:33 | 1062 | 899 | 20.7 | 16.9 | 226 | 7 |
| 2025-11-07T23:34 | 1317 | 873 | 18.8 | 16.2 | ||
| 2025-11-07T23:34 | 1413 | 863 | 18.4 | 15.3 | ||
| 2025-11-07T23:34 | 1420 | 862 | 222 | 7 | ||
| 2025-11-07T23:35 | 1622 | 842 | 17.2 | 13.3 | ||
| 2025-11-07T23:35 | 1792 | 826 | 224 | 9 | ||
| 2025-11-07T23:36 | 1968 | 809 | 15.0 | 12.9 | ||
| 2025-11-07T23:36 | 2186 | 788 | 230 | 9 | ||
| 2025-11-07T23:37 | 2365 | 772 | 13.1 | 10.6 | ||
| 2025-11-07T23:37 | 2583 | 752 | 242 | 11 | ||
| 2025-11-07T23:37 | 2629 | 748 | 11.5 | 9.4 | ||
| 2025-11-07T23:38 | 2938 | 721 | 10.1 | 7.7 | ||
| 2025-11-07T23:38 | 2969 | 718 | 244 | 10 | ||
| 2025-11-07T23:38 | 3063 | 710 | 9.4 | 7.5 | ||
| 2025-11-07T23:39 | 3296 | 690 | 8.5 | 5.8 | ||
| 2025-11-07T23:39 | 3330 | 687 | 250 | 11 | ||
| 2025-11-07T23:40 | 3653 | 661 | 242 | 9 | ||
| 2025-11-07T23:40 | 3763 | 652 | 5.9 | 3.6 | ||
| 2025-11-07T23:41 | 4000 | 634 | 226 | 7 | ||
| 2025-11-07T23:41 | 4011 | 633 | 4.6 | 1.6 | ||
| 2025-11-07T23:42 | 4360 | 606 | 230 | 7 | ||
| 2025-11-07T23:42 | 4379 | 605 | 2.1 | -0.2 | ||
| 2025-11-07T23:43 | 4729 | 579 | 232 | 8 | ||
| 2025-11-07T23:44 | 5088 | 554 | 231 | 6 | ||
| 2025-11-07T23:45 | 5330 | 537 | -4.9 | -6.7 | ||
| 2025-11-07T23:45 | 5385 | 533 | -5.2 | -9.8 | ||
| 2025-11-07T23:45 | 5458 | 528 | 216 | 10 | ||
| 2025-11-07T23:45 | 5602 | 519 | -6.6 | -10.5 | ||
| 2025-11-07T23:46 | 5634 | 516 | -6.4 | -10.1 | ||
| 2025-11-07T23:46 | 5691 | 513 | 206 | 9 | ||
| 2025-11-07T23:46 | 5749 | 509 | -6.8 | -10.0 | ||
| 2025-11-07T23:46 | 5824 | 504 | -7.1 | -9.8 | ||
| 2025-11-07T23:46 | 5879 | 500 | -6.5 | -9.5 | ||
| 2025-11-07T23:47 | 6054 | 489 | 216 | 13 | ||
| 2025-11-07T23:47 | 6223 | 479 | -8.6 | -12.4 | ||
| 2025-11-07T23:48 | 6384 | 469 | 225 | 15 | ||
| 2025-11-07T23:49 | 6685 | 451 | -10.3 | -12.5 | ||
| 2025-11-07T23:49 | 6733 | 448 | 252 | 16 | ||
| 2025-11-07T23:50 | 7104 | 427 | 252 | 16 | ||
| 2025-11-07T23:51 | 7495 | 406 | 252 | 17 | ||
| 2025-11-07T23:52 | 7908 | 384 | 260 | 19 | ||
| 2025-11-07T23:52 | 8159 | 371 | -19.1 | -21.4 | ||
| 2025-11-07T23:53 | 8324 | 363 | 268 | 18 | ||
| 2025-11-07T23:54 | 8744 | 343 | 273 | 14 | ||
| 2025-11-07T23:54 | 8897 | 336 | -24.1 | -26.6 | ||
| 2025-11-07T23:55 | 9159 | 324 | 284 | 13 |
Only the first 2000 rows were shown. To view the complete dataset, download it as tab-delimited text. You can still view the full matrix in your browser, but be aware that this may crash the browser due to the huge size.
